<?xml version="1.0" encoding="UTF-8" standalone="no" ?>
<gpx xmlns="http://www.topografix.com/GPX/1/1" xmlns:xsi="http://www.w3.org/2001/XMLSchema-instance" xsi:schemaLocation="http://www.topografix.com/GPX/1/1 http://www.topografix.com/GPX/1/1/gpx.xsd" version="1.1" creator="VisuGPX - https://www.visugpx.com">
  <metadata>
    <name>Trail du Loup Garou</name>
    <desc><![CDATA[Trail Off du Loup Garou]]></desc>
  </metadata>
  <trk>
    <name><![CDATA[Trail du Loup Garou (fénix)]]></name>
    <trkseg>
      <trkpt lat="47.1929" lon="5.53325">
        <ele>311.20001220703</ele>
        <time>2013-12-04T09:20:24Z</time>
      </trkpt>
      <trkpt lat="47.1929" lon="5.53324">
        <ele>311.20001220703</ele>
        <time>2013-12-04T09:20:25Z</time>
      </trkpt>
      <trkpt lat="47.1929" lon="5.5332">
        <ele>311.20001220703</ele>
        <time>2013-12-04T09:20:27Z</time>
      </trkpt>
      <trkpt lat="47.19284" lon="5.53293">
        <ele>311.20001220703</ele>
        <time>2013-12-04T09:20:36Z</time>
      </trkpt>
      <trkpt lat="47.19264" lon="5.53246">
        <ele>311.20001220703</ele>
        <time>2013-12-04T09:20:49Z</time>
      </trkpt>
      <trkpt lat="47.19255" lon="5.53191">
        <ele>311.20001220703</ele>
        <time>2013-12-04T09:21:02Z</time>
      </trkpt>
      <trkpt lat="47.19251" lon="5.53174">
        <ele>309.60000610352</ele>
        <time>2013-12-04T09:21:06Z</time>
      </trkpt>
      <trkpt lat="47.19241" lon="5.53122">
        <ele>307.60000610352</ele>
        <time>2013-12-04T09:21:19Z</time>
      </trkpt>
      <trkpt lat="47.19229" lon="5.53085">
        <ele>306</ele>
        <time>2013-12-04T09:21:30Z</time>
      </trkpt>
      <trkpt lat="47.19215" lon="5.53037">
        <ele>304.39999389648</ele>
        <time>2013-12-04T09:21:42Z</time>
      </trkpt>
      <trkpt lat="47.19203" lon="5.52993">
        <ele>302</ele>
        <time>2013-12-04T09:21:54Z</time>
      </trkpt>
      <trkpt lat="47.19193" lon="5.52961">
        <ele>299.39999389648</ele>
        <time>2013-12-04T09:22:02Z</time>
      </trkpt>
      <trkpt lat="47.19184" lon="5.52931">
        <ele>297.60000610352</ele>
        <time>2013-12-04T09:22:10Z</time>
      </trkpt>
      <trkpt lat="47.19171" lon="5.52894">
        <ele>295</ele>
        <time>2013-12-04T09:22:22Z</time>
      </trkpt>
      <trkpt lat="47.19149" lon="5.52875">
        <ele>293.79998779297</ele>
        <time>2013-12-04T09:22:33Z</time>
      </trkpt>
      <trkpt lat="47.19121" lon="5.52858">
        <ele>293.20001220703</ele>
        <time>2013-12-04T09:22:46Z</time>
      </trkpt>
      <trkpt lat="47.19103" lon="5.5282">
        <ele>291</ele>
        <time>2013-12-04T09:22:57Z</time>
      </trkpt>
      <trkpt lat="47.19098" lon="5.52784">
        <ele>288</ele>
        <time>2013-12-04T09:23:06Z</time>
      </trkpt>
      <trkpt lat="47.19091" lon="5.52763">
        <ele>285</ele>
        <time>2013-12-04T09:23:13Z</time>
      </trkpt>
      <trkpt lat="47.19089" lon="5.5276">
        <ele>284.60000610352</ele>
        <time>2013-12-04T09:23:14Z</time>
      </trkpt>
      <trkpt lat="47.1908" lon="5.52738">
        <ele>281.39999389648</ele>
        <time>2013-12-04T09:23:22Z</time>
      </trkpt>
      <trkpt lat="47.19068" lon="5.52697">
        <ele>279</ele>
        <time>2013-12-04T09:23:32Z</time>
      </trkpt>
      <trkpt lat="47.19068" lon="5.52671">
        <ele>275.79998779297</ele>
        <time>2013-12-04T09:23:39Z</time>
      </trkpt>
      <trkpt lat="47.19068" lon="5.52652">
        <ele>272.79998779297</ele>
        <time>2013-12-04T09:23:50Z</time>
      </trkpt>
      <trkpt lat="47.19068" lon="5.52626">
        <ele>270</ele>
        <time>2013-12-04T09:24:05Z</time>
      </trkpt>
      <trkpt lat="47.19061" lon="5.52583">
        <ele>266.60000610352</ele>
        <time>2013-12-04T09:24:14Z</time>
      </trkpt>
      <trkpt lat="47.19058" lon="5.52563">
        <ele>265</ele>
        <time>2013-12-04T09:24:18Z</time>
      </trkpt>
      <trkpt lat="47.19052" lon="5.52535">
        <ele>261.60000610352</ele>
        <time>2013-12-04T09:24:24Z</time>
      </trkpt>
      <trkpt lat="47.1905" lon="5.52525">
        <ele>260.79998779297</ele>
        <time>2013-12-04T09:24:26Z</time>
      </trkpt>
      <trkpt lat="47.19044" lon="5.52485">
        <ele>257.60000610352</ele>
        <time>2013-12-04T09:24:35Z</time>
      </trkpt>
      <trkpt lat="47.19036" lon="5.52451">
        <ele>254.60000610352</ele>
        <time>2013-12-04T09:24:43Z</time>
      </trkpt>
      <trkpt lat="47.1903" lon="5.52435">
        <ele>252.60000610352</ele>
        <time>2013-12-04T09:24:47Z</time>
      </trkpt>
      <trkpt lat="47.19023" lon="5.52413">
        <ele>249.39999389648</ele>
        <time>2013-12-04T09:24:52Z</time>
      </trkpt>
      <trkpt lat="47.19022" lon="5.52388">
        <ele>246.39999389648</ele>
        <time>2013-12-04T09:24:58Z</time>
      </trkpt>
      <trkpt lat="47.19024" lon="5.52364">
        <ele>243.19999694824</ele>
        <time>2013-12-04T09:25:03Z</time>
      </trkpt>
      <trkpt lat="47.19021" lon="5.52353">
        <ele>241.60000610352</ele>
        <time>2013-12-04T09:25:06Z</time>
      </trkpt>
      <trkpt lat="47.19012" lon="5.52346">
        <ele>240.60000610352</ele>
        <time>2013-12-04T09:25:11Z</time>
      </trkpt>
      <trkpt lat="47.18981" lon="5.52356">
        <ele>240.39999389648</ele>
        <time>2013-12-04T09:25:24Z</time>
      </trkpt>
      <trkpt lat="47.1895" lon="5.52363">
        <ele>240.39999389648</ele>
        <time>2013-12-04T09:25:36Z</time>
      </trkpt>
      <trkpt lat="47.18946" lon="5.52362">
        <ele>240.39999389648</ele>
        <time>2013-12-04T09:25:38Z</time>
      </trkpt>
      <trkpt lat="47.18938" lon="5.52355">
        <ele>240.39999389648</ele>
        <time>2013-12-04T09:25:52Z</time>
      </trkpt>
      <trkpt lat="47.18935" lon="5.52355">
        <ele>240.39999389648</ele>
        <time>2013-12-04T09:26:05Z</time>
      </trkpt>
      <trkpt lat="47.18935" lon="5.52344">
        <ele>240.39999389648</ele>
        <time>2013-12-04T09:26:10Z</time>
      </trkpt>
      <trkpt lat="47.18927" lon="5.52335">
        <ele>242.60000610352</ele>
        <time>2013-12-04T09:26:15Z</time>
      </trkpt>
      <trkpt lat="47.18927" lon="5.52323">
        <ele>242.80000305176</ele>
        <time>2013-12-04T09:26:19Z</time>
      </trkpt>
      <trkpt lat="47.18931" lon="5.52307">
        <ele>243.19999694824</ele>
        <time>2013-12-04T09:26:27Z</time>
      </trkpt>
      <trkpt lat="47.18935" lon="5.52297">
        <ele>244.80000305176</ele>
        <time>2013-12-04T09:26:33Z</time>
      </trkpt>
      <trkpt lat="47.18934" lon="5.52278">
        <ele>247.80000305176</ele>
        <time>2013-12-04T09:26:45Z</time>
      </trkpt>
      <trkpt lat="47.18932" lon="5.52267">
        <ele>249.39999389648</ele>
        <time>2013-12-04T09:26:51Z</time>
      </trkpt>
      <trkpt lat="47.18924" lon="5.52261">
        <ele>251.39999389648</ele>
        <time>2013-12-04T09:27:07Z</time>
      </trkpt>
      <trkpt lat="47.18921" lon="5.52256">
        <ele>252.60000610352</ele>
        <time>2013-12-04T09:27:13Z</time>
      </trkpt>
      <trkpt lat="47.18908" lon="5.52226">
        <ele>256.39999389648</ele>
        <time>2013-12-04T09:27:23Z</time>
      </trkpt>
      <trkpt lat="47.18903" lon="5.52211">
        <ele>259.20001220703</ele>
        <time>2013-12-04T09:27:28Z</time>
      </trkpt>
      <trkpt lat="47.18892" lon="5.5218">
        <ele>262.39999389648</ele>
        <time>2013-12-04T09:27:39Z</time>
      </trkpt>
      <trkpt lat="47.18891" lon="5.52177">
        <ele>262.79998779297</ele>
        <time>2013-12-04T09:27:40Z</time>
      </trkpt>
      <trkpt lat="47.18868" lon="5.52137">
        <ele>265.79998779297</ele>
        <time>2013-12-04T09:27:53Z</time>
      </trkpt>
      <trkpt lat="47.18849" lon="5.52116">
        <ele>267.79998779297</ele>
        <time>2013-12-04T09:28:04Z</time>
      </trkpt>
      <trkpt lat="47.18821" lon="5.5209">
        <ele>270.20001220703</ele>
        <time>2013-12-04T09:28:20Z</time>
      </trkpt>
      <trkpt lat="47.18801" lon="5.52069">
        <ele>272</ele>
        <time>2013-12-04T09:28:33Z</time>
      </trkpt>
      <trkpt lat="47.18781" lon="5.52045">
        <ele>274.39999389648</ele>
        <time>2013-12-04T09:28:46Z</time>
      </trkpt>
      <trkpt lat="47.18762" lon="5.52011">
        <ele>277</ele>
        <time>2013-12-04T09:29:03Z</time>
      </trkpt>
      <trkpt lat="47.18738" lon="5.51978">
        <ele>280.20001220703</ele>
        <time>2013-12-04T09:29:19Z</time>
      </trkpt>
      <trkpt lat="47.18719" lon="5.51952">
        <ele>282</ele>
        <time>2013-12-04T09:29:31Z</time>
      </trkpt>
      <trkpt lat="47.18714" lon="5.5192">
        <ele>282.20001220703</ele>
        <time>2013-12-04T09:29:41Z</time>
      </trkpt>
      <trkpt lat="47.18706" lon="5.51909">
        <ele>282.20001220703</ele>
        <time>2013-12-04T09:29:45Z</time>
      </trkpt>
      <trkpt lat="47.18679" lon="5.51874">
        <ele>284.79998779297</ele>
        <time>2013-12-04T09:29:59Z</time>
      </trkpt>
      <trkpt lat="47.18663" lon="5.51854">
        <ele>288</ele>
        <time>2013-12-04T09:30:10Z</time>
      </trkpt>
      <trkpt lat="47.18645" lon="5.51843">
        <ele>291.20001220703</ele>
        <time>2013-12-04T09:30:20Z</time>
      </trkpt>
      <trkpt lat="47.1863" lon="5.51839">
        <ele>294.39999389648</ele>
        <time>2013-12-04T09:30:30Z</time>
      </trkpt>
      <trkpt lat="47.18619" lon="5.51832">
        <ele>297.60000610352</ele>
        <time>2013-12-04T09:30:38Z</time>
      </trkpt>
      <trkpt lat="47.18599" lon="5.51821">
        <ele>300.79998779297</ele>
        <time>2013-12-04T09:30:50Z</time>
      </trkpt>
      <trkpt lat="47.18576" lon="5.51798">
        <ele>303.79998779297</ele>
        <time>2013-12-04T09:31:06Z</time>
      </trkpt>
      <trkpt lat="47.18553" lon="5.51772">
        <ele>305.39999389648</ele>
        <time>2013-12-04T09:31:21Z</time>
      </trkpt>
      <trkpt lat="47.18531" lon="5.51737">
        <ele>306.79998779297</ele>
        <time>2013-12-04T09:31:35Z</time>
      </trkpt>
      <trkpt lat="47.18504" lon="5.51702">
        <ele>308.39999389648</ele>
        <time>2013-12-04T09:31:50Z</time>
      </trkpt>
      <trkpt lat="47.18491" lon="5.51677">
        <ele>310</ele>
        <time>2013-12-04T09:32:03Z</time>
      </trkpt>
      <trkpt lat="47.18483" lon="5.51674">
        <ele>310</ele>
        <time>2013-12-04T09:32:16Z</time>
      </trkpt>
      <trkpt lat="47.18468" lon="5.51678">
        <ele>311.39999389648</ele>
        <time>2013-12-04T09:32:33Z</time>
      </trkpt>
      <trkpt lat="47.18465" lon="5.51679">
        <ele>311.79998779297</ele>
        <time>2013-12-04T09:32:38Z</time>
      </trkpt>
      <trkpt lat="47.18448" lon="5.5168">
        <ele>315.20001220703</ele>
        <time>2013-12-04T09:32:48Z</time>
      </trkpt>
      <trkpt lat="47.18439" lon="5.51684">
        <ele>318.39999389648</ele>
        <time>2013-12-04T09:32:55Z</time>
      </trkpt>
      <trkpt lat="47.18437" lon="5.51684">
        <ele>318.60000610352</ele>
        <time>2013-12-04T09:32:56Z</time>
      </trkpt>
      <trkpt lat="47.18434" lon="5.51686">
        <ele>319.39999389648</ele>
        <time>2013-12-04T09:32:58Z</time>
      </trkpt>
      <trkpt lat="47.18431" lon="5.5169">
        <ele>320.39999389648</ele>
        <time>2013-12-04T09:33:00Z</time>
      </trkpt>
      <trkpt lat="47.18422" lon="5.51696">
        <ele>323.60000610352</ele>
        <time>2013-12-04T09:33:08Z</time>
      </trkpt>
      <trkpt lat="47.18409" lon="5.51701">
        <ele>326.79998779297</ele>
        <time>2013-12-04T09:33:17Z</time>
      </trkpt>
      <trkpt lat="47.18402" lon="5.51703">
        <ele>330</ele>
        <time>2013-12-04T09:33:28Z</time>
      </trkpt>
      <trkpt lat="47.18399" lon="5.51706">
        <ele>331.20001220703</ele>
        <time>2013-12-04T09:33:31Z</time>
      </trkpt>
      <trkpt lat="47.18398" lon="5.51707">
        <ele>331.39999389648</ele>
        <time>2013-12-04T09:33:32Z</time>
      </trkpt>
      <trkpt lat="47.18375" lon="5.51729">
        <ele>335</ele>
        <time>2013-12-04T09:33:49Z</time>
      </trkpt>
      <trkpt lat="47.18351" lon="5.51729">
        <ele>336.39999389648</ele>
        <time>2013-12-04T09:34:03Z</time>
      </trkpt>
      <trkpt lat="47.18327" lon="5.5173">
        <ele>338.79998779297</ele>
        <time>2013-12-04T09:34:18Z</time>
      </trkpt>
      <trkpt lat="47.18321" lon="5.51729">
        <ele>339</ele>
        <time>2013-12-04T09:34:25Z</time>
      </trkpt>
      <trkpt lat="47.18299" lon="5.5173">
        <ele>342</ele>
        <time>2013-12-04T09:34:39Z</time>
      </trkpt>
      <trkpt lat="47.18266" lon="5.51729">
        <ele>344</ele>
        <time>2013-12-04T09:34:54Z</time>
      </trkpt>
      <trkpt lat="47.18238" lon="5.51735">
        <ele>346</ele>
        <time>2013-12-04T09:35:07Z</time>
      </trkpt>
      <trkpt lat="47.18218" lon="5.5176">
        <ele>347.39999389648</ele>
        <time>2013-12-04T09:35:18Z</time>
      </trkpt>
      <trkpt lat="47.18202" lon="5.51797">
        <ele>349</ele>
        <time>2013-12-04T09:35:32Z</time>
      </trkpt>
      <trkpt lat="47.18193" lon="5.51837">
        <ele>352</ele>
        <time>2013-12-04T09:35:46Z</time>
      </trkpt>
      <trkpt lat="47.18192" lon="5.51841">
        <ele>352</ele>
        <time>2013-12-04T09:35:47Z</time>
      </trkpt>
      <trkpt lat="47.18169" lon="5.51889">
        <ele>352</ele>
        <time>2013-12-04T09:36:04Z</time>
      </trkpt>
      <trkpt lat="47.1816" lon="5.51898">
        <ele>352</ele>
        <time>2013-12-04T09:36:17Z</time>
      </trkpt>
      <trkpt lat="47.18159" lon="5.51902">
        <ele>352</ele>
        <time>2013-12-04T09:36:33Z</time>
      </trkpt>
      <trkpt lat="47.18158" lon="5.51903">
        <ele>352</ele>
        <time>2013-12-04T09:36:34Z</time>
      </trkpt>
      <trkpt lat="47.18131" lon="5.51921">
        <ele>352</ele>
        <time>2013-12-04T09:36:50Z</time>
      </trkpt>
      <trkpt lat="47.18115" lon="5.51944">
        <ele>350</ele>
        <time>2013-12-04T09:36:57Z</time>
      </trkpt>
      <trkpt lat="47.18089" lon="5.51979">
        <ele>347.20001220703</ele>
        <time>2013-12-04T09:37:09Z</time>
      </trkpt>
      <trkpt lat="47.18081" lon="5.51984">
        <ele>345.39999389648</ele>
        <time>2013-12-04T09:37:19Z</time>
      </trkpt>
      <trkpt lat="47.18069" lon="5.51984">
        <ele>345</ele>
        <time>2013-12-04T09:37:33Z</time>
      </trkpt>
      <trkpt lat="47.1805" lon="5.52003">
        <ele>341.79998779297</ele>
        <time>2013-12-04T09:37:44Z</time>
      </trkpt>
      <trkpt lat="47.18048" lon="5.52005">
        <ele>341.60000610352</ele>
        <time>2013-12-04T09:37:45Z</time>
      </trkpt>
      <trkpt lat="47.1801" lon="5.52014">
        <ele>338.79998779297</ele>
        <time>2013-12-04T09:37:56Z</time>
      </trkpt>
      <trkpt lat="47.18004" lon="5.52013">
        <ele>338.39999389648</ele>
        <time>2013-12-04T09:37:59Z</time>
      </trkpt>
      <trkpt lat="47.17975" lon="5.52039">
        <ele>335</ele>
        <time>2013-12-04T09:38:09Z</time>
      </trkpt>
      <trkpt lat="47.17962" lon="5.52063">
        <ele>332.60000610352</ele>
        <time>2013-12-04T09:38:16Z</time>
      </trkpt>
      <trkpt lat="47.1795" lon="5.52056">
        <ele>331.20001220703</ele>
        <time>2013-12-04T09:38:21Z</time>
      </trkpt>
      <trkpt lat="47.17918" lon="5.52033">
        <ele>331.20001220703</ele>
        <time>2013-12-04T09:38:34Z</time>
      </trkpt>
      <trkpt lat="47.17879" lon="5.52017">
        <ele>331.20001220703</ele>
        <time>2013-12-04T09:38:47Z</time>
      </trkpt>
      <trkpt lat="47.17854" lon="5.52002">
        <ele>329.79998779297</ele>
        <time>2013-12-04T09:38:57Z</time>
      </trkpt>
      <trkpt lat="47.17843" lon="5.52007">
        <ele>328.79998779297</ele>
        <time>2013-12-04T09:39:03Z</time>
      </trkpt>
      <trkpt lat="47.17826" lon="5.52036">
        <ele>328.60000610352</ele>
        <time>2013-12-04T09:39:16Z</time>
      </trkpt>
      <trkpt lat="47.17801" lon="5.52061">
        <ele>327.79998779297</ele>
        <time>2013-12-04T09:39:29Z</time>
      </trkpt>
      <trkpt lat="47.17784" lon="5.52119">
        <ele>330</ele>
        <time>2013-12-04T09:39:44Z</time>
      </trkpt>
      <trkpt lat="47.17759" lon="5.52169">
        <ele>330</ele>
        <time>2013-12-04T09:39:59Z</time>
      </trkpt>
      <trkpt lat="47.17741" lon="5.52211">
        <ele>330</ele>
        <time>2013-12-04T09:40:12Z</time>
      </trkpt>
      <trkpt lat="47.17738" lon="5.52221">
        <ele>330</ele>
        <time>2013-12-04T09:40:15Z</time>
      </trkpt>
      <trkpt lat="47.17733" lon="5.52241">
        <ele>331</ele>
        <time>2013-12-04T09:40:21Z</time>
      </trkpt>
      <trkpt lat="47.17728" lon="5.52261">
        <ele>331.79998779297</ele>
        <time>2013-12-04T09:40:27Z</time>
      </trkpt>
      <trkpt lat="47.17722" lon="5.5228">
        <ele>331.79998779297</ele>
        <time>2013-12-04T09:40:34Z</time>
      </trkpt>
      <trkpt lat="47.17723" lon="5.52287">
        <ele>331.79998779297</ele>
        <time>2013-12-04T09:40:36Z</time>
      </trkpt>
      <trkpt lat="47.1771" lon="5.52327">
        <ele>333.39999389648</ele>
        <time>2013-12-04T09:40:48Z</time>
      </trkpt>
      <trkpt lat="47.17695" lon="5.52364">
        <ele>334.79998779297</ele>
        <time>2013-12-04T09:41:01Z</time>
      </trkpt>
      <trkpt lat="47.17694" lon="5.52377">
        <ele>335.79998779297</ele>
        <time>2013-12-04T09:41:06Z</time>
      </trkpt>
      <trkpt lat="47.17695" lon="5.52394">
        <ele>336.20001220703</ele>
        <time>2013-12-04T09:41:11Z</time>
      </trkpt>
      <trkpt lat="47.17694" lon="5.52411">
        <ele>337.20001220703</ele>
        <time>2013-12-04T09:41:17Z</time>
      </trkpt>
      <trkpt lat="47.17681" lon="5.52444">
        <ele>339.20001220703</ele>
        <time>2013-12-04T09:41:31Z</time>
      </trkpt>
      <trkpt lat="47.1767" lon="5.52468">
        <ele>340.79998779297</ele>
        <time>2013-12-04T09:41:41Z</time>
      </trkpt>
      <trkpt lat="47.17668" lon="5.52472">
        <ele>341</ele>
        <time>2013-12-04T09:41:43Z</time>
      </trkpt>
      <trkpt lat="47.17662" lon="5.52487">
        <ele>342.20001220703</ele>
        <time>2013-12-04T09:41:49Z</time>
      </trkpt>
      <trkpt lat="47.17649" lon="5.52525">
        <ele>344.20001220703</ele>
        <time>2013-12-04T09:42:02Z</time>
      </trkpt>
      <trkpt lat="47.1764" lon="5.52556">
        <ele>345.60000610352</ele>
        <time>2013-12-04T09:42:12Z</time>
      </trkpt>
      <trkpt lat="47.17636" lon="5.52603">
        <ele>346.79998779297</ele>
        <time>2013-12-04T09:42:27Z</time>
      </trkpt>
      <trkpt lat="47.1763" lon="5.52639">
        <ele>347.60000610352</ele>
        <time>2013-12-04T09:42:39Z</time>
      </trkpt>
      <trkpt lat="47.17619" lon="5.52685">
        <ele>347.60000610352</ele>
        <time>2013-12-04T09:42:50Z</time>
      </trkpt>
      <trkpt lat="47.17605" lon="5.52738">
        <ele>344.79998779297</ele>
        <time>2013-12-04T09:43:03Z</time>
      </trkpt>
      <trkpt lat="47.17586" lon="5.52777">
        <ele>344.39999389648</ele>
        <time>2013-12-04T09:43:16Z</time>
      </trkpt>
      <trkpt lat="47.17579" lon="5.52785">
        <ele>344.39999389648</ele>
        <time>2013-12-04T09:43:20Z</time>
      </trkpt>
      <trkpt lat="47.17571" lon="5.52792">
        <ele>344.39999389648</ele>
        <time>2013-12-04T09:43:24Z</time>
      </trkpt>
      <trkpt lat="47.17563" lon="5.52819">
        <ele>346.60000610352</ele>
        <time>2013-12-04T09:43:33Z</time>
      </trkpt>
      <trkpt lat="47.17558" lon="5.52877">
        <ele>348.39999389648</ele>
        <time>2013-12-04T09:43:48Z</time>
      </trkpt>
      <trkpt lat="47.17543" lon="5.5293">
        <ele>351</ele>
        <time>2013-12-04T09:44:02Z</time>
      </trkpt>
      <trkpt lat="47.17535" lon="5.52969">
        <ele>352.79998779297</ele>
        <time>2013-12-04T09:44:15Z</time>
      </trkpt>
      <trkpt lat="47.17526" lon="5.52991">
        <ele>352.79998779297</ele>
        <time>2013-12-04T09:44:30Z</time>
      </trkpt>
      <trkpt lat="47.17527" lon="5.52995">
        <ele>353.60000610352</ele>
        <time>2013-12-04T09:44:45Z</time>
      </trkpt>
      <trkpt lat="47.17527" lon="5.53004">
        <ele>353.60000610352</ele>
        <time>2013-12-04T09:45:04Z</time>
      </trkpt>
      <trkpt lat="47.17527" lon="5.53012">
        <ele>353.60000610352</ele>
        <time>2013-12-04T09:45:08Z</time>
      </trkpt>
      <trkpt lat="47.17513" lon="5.53057">
        <ele>353.60000610352</ele>
        <time>2013-12-04T09:45:24Z</time>
      </trkpt>
      <trkpt lat="47.17493" lon="5.53092">
        <ele>353.60000610352</ele>
        <time>2013-12-04T09:45:36Z</time>
      </trkpt>
      <trkpt lat="47.17468" lon="5.53121">
        <ele>351.60000610352</ele>
        <time>2013-12-04T09:45:47Z</time>
      </trkpt>
      <trkpt lat="47.17455" lon="5.53122">
        <ele>350.39999389648</ele>
        <time>2013-12-04T09:45:52Z</time>
      </trkpt>
      <trkpt lat="47.17422" lon="5.53108">
        <ele>347.60000610352</ele>
        <time>2013-12-04T09:46:05Z</time>
      </trkpt>
      <trkpt lat="47.17413" lon="5.53101">
        <ele>346.79998779297</ele>
        <time>2013-12-04T09:46:09Z</time>
      </trkpt>
      <trkpt lat="47.17405" lon="5.53095">
        <ele>346.60000610352</ele>
        <time>2013-12-04T09:46:13Z</time>
      </trkpt>
      <trkpt lat="47.17379" lon="5.53075">
        <ele>343</ele>
        <time>2013-12-04T09:46:24Z</time>
      </trkpt>
      <trkpt lat="47.17355" lon="5.53056">
        <ele>339.60000610352</ele>
        <time>2013-12-04T09:46:32Z</time>
      </trkpt>
      <trkpt lat="47.17335" lon="5.53043">
        <ele>336.39999389648</ele>
        <time>2013-12-04T09:46:39Z</time>
      </trkpt>
      <trkpt lat="47.17314" lon="5.53023">
        <ele>333.39999389648</ele>
        <time>2013-12-04T09:46:46Z</time>
      </trkpt>
      <trkpt lat="47.17302" lon="5.53013">
        <ele>330.60000610352</ele>
        <time>2013-12-04T09:46:49Z</time>
      </trkpt>
      <trkpt lat="47.17292" lon="5.53005">
        <ele>329</ele>
        <time>2013-12-04T09:46:52Z</time>
      </trkpt>
      <trkpt lat="47.17272" lon="5.5299">
        <ele>325.60000610352</ele>
        <time>2013-12-04T09:47:01Z</time>
      </trkpt>
      <trkpt lat="47.17271" lon="5.5299">
        <ele>325</ele>
        <time>2013-12-04T09:47:02Z</time>
      </trkpt>
      <trkpt lat="47.17263" lon="5.52991">
        <ele>324.39999389648</ele>
        <time>2013-12-04T09:47:13Z</time>
      </trkpt>
      <trkpt lat="47.17262" lon="5.5299">
        <ele>324.39999389648</ele>
        <time>2013-12-04T09:47:16Z</time>
      </trkpt>
      <trkpt lat="47.1725" lon="5.5298">
        <ele>323.39999389648</ele>
        <time>2013-12-04T09:47:29Z</time>
      </trkpt>
      <trkpt lat="47.17222" lon="5.52959">
        <ele>321.60000610352</ele>
        <time>2013-12-04T09:47:40Z</time>
      </trkpt>
      <trkpt lat="47.17192" lon="5.52937">
        <ele>318.60000610352</ele>
        <time>2013-12-04T09:47:51Z</time>
      </trkpt>
      <trkpt lat="47.17156" lon="5.5291">
        <ele>315.39999389648</ele>
        <time>2013-12-04T09:48:03Z</time>
      </trkpt>
      <trkpt lat="47.1713" lon="5.52905">
        <ele>312.20001220703</ele>
        <time>2013-12-04T09:48:11Z</time>
      </trkpt>
      <trkpt lat="47.17086" lon="5.52882">
        <ele>309.79998779297</ele>
        <time>2013-12-04T09:48:24Z</time>
      </trkpt>
      <trkpt lat="47.17046" lon="5.52853">
        <ele>308.39999389648</ele>
        <time>2013-12-04T09:48:38Z</time>
      </trkpt>
      <trkpt lat="47.17043" lon="5.5285">
        <ele>307.60000610352</ele>
        <time>2013-12-04T09:48:39Z</time>
      </trkpt>
      <trkpt lat="47.1702" lon="5.52843">
        <ele>303.60000610352</ele>
        <time>2013-12-04T09:48:44Z</time>
      </trkpt>
      <trkpt lat="47.17007" lon="5.52843">
        <ele>302.20001220703</ele>
        <time>2013-12-04T09:48:47Z</time>
      </trkpt>
      <trkpt lat="47.16965" lon="5.52839">
        <ele>300.20001220703</ele>
        <time>2013-12-04T09:49:01Z</time>
      </trkpt>
      <trkpt lat="47.16935" lon="5.52834">
        <ele>297.20001220703</ele>
        <time>2013-12-04T09:49:10Z</time>
      </trkpt>
      <trkpt lat="47.16892" lon="5.52822">
        <ele>294</ele>
        <time>2013-12-04T09:49:24Z</time>
      </trkpt>
      <trkpt lat="47.16869" lon="5.52821">
        <ele>290.79998779297</ele>
        <time>2013-12-04T09:49:32Z</time>
      </trkpt>
      <trkpt lat="47.1685" lon="5.52818">
        <ele>289</ele>
        <time>2013-12-04T09:49:37Z</time>
      </trkpt>
      <trkpt lat="47.16814" lon="5.5281">
        <ele>286</ele>
        <time>2013-12-04T09:49:49Z</time>
      </trkpt>
      <trkpt lat="47.1677" lon="5.52792">
        <ele>282.79998779297</ele>
        <time>2013-12-04T09:50:03Z</time>
      </trkpt>
      <trkpt lat="47.16721" lon="5.5278">
        <ele>279.79998779297</ele>
        <time>2013-12-04T09:50:18Z</time>
      </trkpt>
      <trkpt lat="47.16687" lon="5.52776">
        <ele>276.60000610352</ele>
        <time>2013-12-04T09:50:29Z</time>
      </trkpt>
      <trkpt lat="47.16661" lon="5.52802">
        <ele>274</ele>
        <time>2013-12-04T09:50:40Z</time>
      </trkpt>
      <trkpt lat="47.16645" lon="5.52817">
        <ele>271</ele>
        <time>2013-12-04T09:50:47Z</time>
      </trkpt>
      <trkpt lat="47.16635" lon="5.52833">
        <ele>267.79998779297</ele>
        <time>2013-12-04T09:50:54Z</time>
      </trkpt>
      <trkpt lat="47.16631" lon="5.52844">
        <ele>267</ele>
        <time>2013-12-04T09:51:02Z</time>
      </trkpt>
      <trkpt lat="47.16603" lon="5.52857">
        <ele>263.60000610352</ele>
        <time>2013-12-04T09:51:15Z</time>
      </trkpt>
      <trkpt lat="47.16572" lon="5.52895">
        <ele>263</ele>
        <time>2013-12-04T09:51:30Z</time>
      </trkpt>
      <trkpt lat="47.16558" lon="5.529">
        <ele>261.60000610352</ele>
        <time>2013-12-04T09:51:36Z</time>
      </trkpt>
      <trkpt lat="47.16519" lon="5.52907">
        <ele>259.79998779297</ele>
        <time>2013-12-04T09:51:51Z</time>
      </trkpt>
      <trkpt lat="47.1648" lon="5.52909">
        <ele>256.79998779297</ele>
        <time>2013-12-04T09:52:03Z</time>
      </trkpt>
      <trkpt lat="47.16457" lon="5.52922">
        <ele>255</ele>
        <time>2013-12-04T09:52:14Z</time>
      </trkpt>
      <trkpt lat="47.16447" lon="5.52938">
        <ele>253.19999694824</ele>
        <time>2013-12-04T09:52:21Z</time>
      </trkpt>
      <trkpt lat="47.16439" lon="5.52944">
        <ele>253.19999694824</ele>
        <time>2013-12-04T09:52:25Z</time>
      </trkpt>
      <trkpt lat="47.16414" lon="5.52966">
        <ele>252.19999694824</ele>
        <time>2013-12-04T09:52:37Z</time>
      </trkpt>
      <trkpt lat="47.16383" lon="5.53006">
        <ele>251.39999389648</ele>
        <time>2013-12-04T09:52:52Z</time>
      </trkpt>
      <trkpt lat="47.16357" lon="5.53036">
        <ele>251.39999389648</ele>
        <time>2013-12-04T09:53:03Z</time>
      </trkpt>
      <trkpt lat="47.16334" lon="5.53057">
        <ele>251.39999389648</ele>
        <time>2013-12-04T09:53:13Z</time>
      </trkpt>
      <trkpt lat="47.16303" lon="5.5307">
        <ele>250.60000610352</ele>
        <time>2013-12-04T09:53:25Z</time>
      </trkpt>
      <trkpt lat="47.16289" lon="5.53076">
        <ele>247.60000610352</ele>
        <time>2013-12-04T09:53:30Z</time>
      </trkpt>
      <trkpt lat="47.16288" lon="5.53078">
        <ele>247.19999694824</ele>
        <time>2013-12-04T09:53:31Z</time>
      </trkpt>
      <trkpt lat="47.16282" lon="5.53081">
        <ele>245.39999389648</ele>
        <time>2013-12-04T09:53:46Z</time>
      </trkpt>
      <trkpt lat="47.16282" lon="5.53081">
        <ele>245.39999389648</ele>
        <time>2013-12-04T09:53:49Z</time>
      </trkpt>
      <trkpt lat="47.16281" lon="5.53089">
        <ele>244.60000610352</ele>
        <time>2013-12-04T09:54:05Z</time>
      </trkpt>
      <trkpt lat="47.16265" lon="5.5308">
        <ele>244.60000610352</ele>
        <time>2013-12-04T09:54:22Z</time>
      </trkpt>
      <trkpt lat="47.16267" lon="5.53087">
        <ele>244.60000610352</ele>
        <time>2013-12-04T09:54:33Z</time>
      </trkpt>
      <trkpt lat="47.16263" lon="5.53113">
        <ele>244.60000610352</ele>
        <time>2013-12-04T09:54:47Z</time>
      </trkpt>
      <trkpt lat="47.16254" lon="5.53141">
        <ele>247.80000305176</ele>
        <time>2013-12-04T09:54:57Z</time>
      </trkpt>
      <trkpt lat="47.16253" lon="5.53143">
        <ele>248</ele>
        <time>2013-12-04T09:54:58Z</time>
      </trkpt>
      <trkpt lat="47.16243" lon="5.53183">
        <ele>245</ele>
        <time>2013-12-04T09:55:12Z</time>
      </trkpt>
      <trkpt lat="47.16238" lon="5.53191">
        <ele>247</ele>
        <time>2013-12-04T09:55:16Z</time>
      </trkpt>
      <trkpt lat="47.16237" lon="5.53192">
        <ele>247.19999694824</ele>
        <time>2013-12-04T09:55:17Z</time>
      </trkpt>
      <trkpt lat="47.16217" lon="5.53195">
        <ele>243.80000305176</ele>
        <time>2013-12-04T09:55:26Z</time>
      </trkpt>
      <trkpt lat="47.16212" lon="5.53203">
        <ele>242.39999389648</ele>
        <time>2013-12-04T09:55:29Z</time>
      </trkpt>
      <trkpt lat="47.16206" lon="5.53212">
        <ele>241.19999694824</ele>
        <time>2013-12-04T09:55:35Z</time>
      </trkpt>
      <trkpt lat="47.1618" lon="5.53226">
        <ele>238</ele>
        <time>2013-12-04T09:55:47Z</time>
      </trkpt>
      <trkpt lat="47.16156" lon="5.53252">
        <ele>235.19999694824</ele>
        <time>2013-12-04T09:55:59Z</time>
      </trkpt>
      <trkpt lat="47.16132" lon="5.53288">
        <ele>233.39999389648</ele>
        <time>2013-12-04T09:56:12Z</time>
      </trkpt>
      <trkpt lat="47.1611" lon="5.53308">
        <ele>231.19999694824</ele>
        <time>2013-12-04T09:56:22Z</time>
      </trkpt>
      <trkpt lat="47.16078" lon="5.53326">
        <ele>229.19999694824</ele>
        <time>2013-12-04T09:56:34Z</time>
      </trkpt>
      <trkpt lat="47.16038" lon="5.53344">
        <ele>227.39999389648</ele>
        <time>2013-12-04T09:56:48Z</time>
      </trkpt>
      <trkpt lat="47.16006" lon="5.53363">
        <ele>227.39999389648</ele>
        <time>2013-12-04T09:57:01Z</time>
      </trkpt>
      <trkpt lat="47.1598" lon="5.53367">
        <ele>227.39999389648</ele>
        <time>2013-12-04T09:57:15Z</time>
      </trkpt>
      <trkpt lat="47.15981" lon="5.53376">
        <ele>227.39999389648</ele>
        <time>2013-12-04T09:57:31Z</time>
      </trkpt>
      <trkpt lat="47.15988" lon="5.53387">
        <ele>230.39999389648</ele>
        <time>2013-12-04T09:57:47Z</time>
      </trkpt>
      <trkpt lat="47.15989" lon="5.53387">
        <ele>230.80000305176</ele>
        <time>2013-12-04T09:57:48Z</time>
      </trkpt>
      <trkpt lat="47.15994" lon="5.534">
        <ele>234.19999694824</ele>
        <time>2013-12-04T09:57:57Z</time>
      </trkpt>
      <trkpt lat="47.16001" lon="5.53408">
        <ele>237.60000610352</ele>
        <time>2013-12-04T09:58:05Z</time>
      </trkpt>
      <trkpt lat="47.16009" lon="5.53421">
        <ele>241.19999694824</ele>
        <time>2013-12-04T09:58:14Z</time>
      </trkpt>
      <trkpt lat="47.16017" lon="5.53436">
        <ele>244.60000610352</ele>
        <time>2013-12-04T09:58:24Z</time>
      </trkpt>
      <trkpt lat="47.16028" lon="5.53444">
        <ele>247.80000305176</ele>
        <time>2013-12-04T09:58:32Z</time>
      </trkpt>
      <trkpt lat="47.1603" lon="5.53447">
        <ele>248.80000305176</ele>
        <time>2013-12-04T09:58:34Z</time>
      </trkpt>
      <trkpt lat="47.16045" lon="5.53459">
        <ele>251.80000305176</ele>
        <time>2013-12-04T09:58:51Z</time>
      </trkpt>
      <trkpt lat="47.1605" lon="5.53467">
        <ele>253.39999389648</ele>
        <time>2013-12-04T09:58:58Z</time>
      </trkpt>
      <trkpt lat="47.16064" lon="5.53481">
        <ele>255.19999694824</ele>
        <time>2013-12-04T09:59:13Z</time>
      </trkpt>
      <trkpt lat="47.16066" lon="5.53483">
        <ele>255.19999694824</ele>
        <time>2013-12-04T09:59:15Z</time>
      </trkpt>
      <trkpt lat="47.16074" lon="5.53493">
        <ele>256.60000610352</ele>
        <time>2013-12-04T09:59:24Z</time>
      </trkpt>
      <trkpt lat="47.16087" lon="5.53518">
        <ele>260</ele>
        <time>2013-12-04T09:59:37Z</time>
      </trkpt>
      <trkpt lat="47.16109" lon="5.53544">
        <ele>263.20001220703</ele>
        <time>2013-12-04T09:59:51Z</time>
      </trkpt>
      <trkpt lat="47.16135" lon="5.53575">
        <ele>265.39999389648</ele>
        <time>2013-12-04T10:00:07Z</time>
      </trkpt>
      <trkpt lat="47.16155" lon="5.536">
        <ele>268</ele>
        <time>2013-12-04T10:00:21Z</time>
      </trkpt>
      <trkpt lat="47.16172" lon="5.53627">
        <ele>270.39999389648</ele>
        <time>2013-12-04T10:00:36Z</time>
      </trkpt>
      <trkpt lat="47.16196" lon="5.53668">
        <ele>272.60000610352</ele>
        <time>2013-12-04T10:00:52Z</time>
      </trkpt>
      <trkpt lat="47.16222" lon="5.53703">
        <ele>274.60000610352</ele>
        <time>2013-12-04T10:01:07Z</time>
      </trkpt>
      <trkpt lat="47.16249" lon="5.53731">
        <ele>276.20001220703</ele>
        <time>2013-12-04T10:01:22Z</time>
      </trkpt>
      <trkpt lat="47.16271" lon="5.53764">
        <ele>278</ele>
        <time>2013-12-04T10:01:35Z</time>
      </trkpt>
      <trkpt lat="47.16291" lon="5.53793">
        <ele>280.39999389648</ele>
        <time>2013-12-04T10:01:50Z</time>
      </trkpt>
      <trkpt lat="47.16311" lon="5.53822">
        <ele>282.60000610352</ele>
        <time>2013-12-04T10:02:05Z</time>
      </trkpt>
      <trkpt lat="47.16315" lon="5.53828">
        <ele>282.79998779297</ele>
        <time>2013-12-04T10:02:08Z</time>
      </trkpt>
      <trkpt lat="47.16343" lon="5.53858">
        <ele>285</ele>
        <time>2013-12-04T10:02:21Z</time>
      </trkpt>
      <trkpt lat="47.16361" lon="5.53878">
        <ele>286.39999389648</ele>
        <time>2013-12-04T10:02:34Z</time>
      </trkpt>
      <trkpt lat="47.16363" lon="5.53881">
        <ele>286.39999389648</ele>
        <time>2013-12-04T10:02:36Z</time>
      </trkpt>
      <trkpt lat="47.16372" lon="5.53894">
        <ele>287</ele>
        <time>2013-12-04T10:02:44Z</time>
      </trkpt>
      <trkpt lat="47.16397" lon="5.53934">
        <ele>288.79998779297</ele>
        <time>2013-12-04T10:03:01Z</time>
      </trkpt>
      <trkpt lat="47.16409" lon="5.53946">
        <ele>290</ele>
        <time>2013-12-04T10:03:10Z</time>
      </trkpt>
      <trkpt lat="47.16432" lon="5.53983">
        <ele>290</ele>
        <time>2013-12-04T10:03:24Z</time>
      </trkpt>
      <trkpt lat="47.16453" lon="5.54016">
        <ele>288.20001220703</ele>
        <time>2013-12-04T10:03:34Z</time>
      </trkpt>
      <trkpt lat="47.16466" lon="5.54031">
        <ele>285.20001220703</ele>
        <time>2013-12-04T10:03:40Z</time>
      </trkpt>
      <trkpt lat="47.16473" lon="5.54035">
        <ele>281.79998779297</ele>
        <time>2013-12-04T10:03:46Z</time>
      </trkpt>
      <trkpt lat="47.16474" lon="5.54035">
        <ele>281.60000610352</ele>
        <time>2013-12-04T10:03:47Z</time>
      </trkpt>
      <trkpt lat="47.16478" lon="5.54042">
        <ele>281.20001220703</ele>
        <time>2013-12-04T10:04:03Z</time>
      </trkpt>
      <trkpt lat="47.16474" lon="5.54041">
        <ele>281.20001220703</ele>
        <time>2013-12-04T10:04:18Z</time>
      </trkpt>
      <trkpt lat="47.16474" lon="5.54041">
        <ele>281.20001220703</ele>
        <time>2013-12-04T10:04:38Z</time>
      </trkpt>
      <trkpt lat="47.16473" lon="5.54042">
        <ele>281.20001220703</ele>
        <time>2013-12-04T10:04:45Z</time>
      </trkpt>
      <trkpt lat="47.16488" lon="5.54057">
        <ele>278</ele>
        <time>2013-12-04T10:04:52Z</time>
      </trkpt>
      <trkpt lat="47.16502" lon="5.54073">
        <ele>274.79998779297</ele>
        <time>2013-12-04T10:04:58Z</time>
      </trkpt>
      <trkpt lat="47.16519" lon="5.54096">
        <ele>273.79998779297</ele>
        <time>2013-12-04T10:05:08Z</time>
      </trkpt>
      <trkpt lat="47.1652" lon="5.54098">
        <ele>273.79998779297</ele>
        <time>2013-12-04T10:05:09Z</time>
      </trkpt>
      <trkpt lat="47.16523" lon="5.54107">
        <ele>275.79998779297</ele>
        <time>2013-12-04T10:05:13Z</time>
      </trkpt>
      <trkpt lat="47.16529" lon="5.54115">
        <ele>279</ele>
        <time>2013-12-04T10:05:18Z</time>
      </trkpt>
      <trkpt lat="47.16544" lon="5.54136">
        <ele>281.60000610352</ele>
        <time>2013-12-04T10:05:30Z</time>
      </trkpt>
      <trkpt lat="47.16558" lon="5.54157">
        <ele>284.79998779297</ele>
        <time>2013-12-04T10:05:42Z</time>
      </trkpt>
      <trkpt lat="47.1656" lon="5.54161">
        <ele>285.60000610352</ele>
        <time>2013-12-04T10:05:44Z</time>
      </trkpt>
      <trkpt lat="47.16583" lon="5.54191">
        <ele>287.79998779297</ele>
        <time>2013-12-04T10:05:58Z</time>
      </trkpt>
      <trkpt lat="47.16599" lon="5.54221">
        <ele>289.39999389648</ele>
        <time>2013-12-04T10:06:11Z</time>
      </trkpt>
      <trkpt lat="47.16621" lon="5.54253">
        <ele>290.20001220703</ele>
        <time>2013-12-04T10:06:24Z</time>
      </trkpt>
      <trkpt lat="47.1664" lon="5.5428">
        <ele>291</ele>
        <time>2013-12-04T10:06:36Z</time>
      </trkpt>
      <trkpt lat="47.16667" lon="5.54316">
        <ele>293.39999389648</ele>
        <time>2013-12-04T10:06:52Z</time>
      </trkpt>
      <trkpt lat="47.16676" lon="5.54327">
        <ele>295.20001220703</ele>
        <time>2013-12-04T10:06:57Z</time>
      </trkpt>
      <trkpt lat="47.16699" lon="5.54356">
        <ele>297</ele>
        <time>2013-12-04T10:07:10Z</time>
      </trkpt>
      <trkpt lat="47.1673" lon="5.54392">
        <ele>294.79998779297</ele>
        <time>2013-12-04T10:07:25Z</time>
      </trkpt>
      <trkpt lat="47.16735" lon="5.54397">
        <ele>292.39999389648</ele>
        <time>2013-12-04T10:07:30Z</time>
      </trkpt>
      <trkpt lat="47.16741" lon="5.54402">
        <ele>291</ele>
        <time>2013-12-04T10:07:59Z</time>
      </trkpt>
      <trkpt lat="47.16744" lon="5.54411">
        <ele>287.79998779297</ele>
        <time>2013-12-04T10:08:05Z</time>
      </trkpt>
      <trkpt lat="47.1675" lon="5.54417">
        <ele>284.39999389648</ele>
        <time>2013-12-04T10:08:09Z</time>
      </trkpt>
      <trkpt lat="47.16756" lon="5.54422">
        <ele>281</ele>
        <time>2013-12-04T10:08:12Z</time>
      </trkpt>
      <trkpt lat="47.16763" lon="5.54429">
        <ele>276.79998779297</ele>
        <time>2013-12-04T10:08:16Z</time>
      </trkpt>
      <trkpt lat="47.16775" lon="5.5445">
        <ele>273.60000610352</ele>
        <time>2013-12-04T10:08:21Z</time>
      </trkpt>
      <trkpt lat="47.16789" lon="5.54465">
        <ele>271.39999389648</ele>
        <time>2013-12-04T10:08:31Z</time>
      </trkpt>
      <trkpt lat="47.16795" lon="5.54481">
        <ele>273.79998779297</ele>
        <time>2013-12-04T10:08:40Z</time>
      </trkpt>
      <trkpt lat="47.16799" lon="5.54489">
        <ele>276</ele>
        <time>2013-12-04T10:08:45Z</time>
      </trkpt>
      <trkpt lat="47.16801" lon="5.54496">
        <ele>277.60000610352</ele>
        <time>2013-12-04T10:08:50Z</time>
      </trkpt>
      <trkpt lat="47.16807" lon="5.545">
        <ele>279.39999389648</ele>
        <time>2013-12-04T10:08:54Z</time>
      </trkpt>
      <trkpt lat="47.16814" lon="5.54503">
        <ele>283.20001220703</ele>
        <time>2013-12-04T10:09:05Z</time>
      </trkpt>
      <trkpt lat="47.16819" lon="5.5451">
        <ele>286.20001220703</ele>
        <time>2013-12-04T10:09:15Z</time>
      </trkpt>
      <trkpt lat="47.16827" lon="5.5453">
        <ele>289.20001220703</ele>
        <time>2013-12-04T10:09:29Z</time>
      </trkpt>
      <trkpt lat="47.16828" lon="5.54549">
        <ele>291.79998779297</ele>
        <time>2013-12-04T10:09:37Z</time>
      </trkpt>
      <trkpt lat="47.16837" lon="5.54564">
        <ele>294.60000610352</ele>
        <time>2013-12-04T10:09:46Z</time>
      </trkpt>
      <trkpt lat="47.16844" lon="5.5458">
        <ele>297.79998779297</ele>
        <time>2013-12-04T10:09:59Z</time>
      </trkpt>
      <trkpt lat="47.16843" lon="5.54583">
        <ele>298.60000610352</ele>
        <time>2013-12-04T10:10:17Z</time>
      </trkpt>
      <trkpt lat="47.16844" lon="5.54588">
        <ele>298.79998779297</ele>
        <time>2013-12-04T10:10:19Z</time>
      </trkpt>
      <trkpt lat="47.16836" lon="5.54608">
        <ele>301.39999389648</ele>
        <time>2013-12-04T10:10:36Z</time>
      </trkpt>
      <trkpt lat="47.16819" lon="5.54625">
        <ele>303.79998779297</ele>
        <time>2013-12-04T10:10:49Z</time>
      </trkpt>
      <trkpt lat="47.16812" lon="5.54641">
        <ele>305.60000610352</ele>
        <time>2013-12-04T10:10:59Z</time>
      </trkpt>
      <trkpt lat="47.16803" lon="5.54657">
        <ele>308</ele>
        <time>2013-12-04T10:11:12Z</time>
      </trkpt>
      <trkpt lat="47.16806" lon="5.54668">
        <ele>310.60000610352</ele>
        <time>2013-12-04T10:11:21Z</time>
      </trkpt>
      <trkpt lat="47.16825" lon="5.54658">
        <ele>311.79998779297</ele>
        <time>2013-12-04T10:11:36Z</time>
      </trkpt>
      <trkpt lat="47.16845" lon="5.54654">
        <ele>314.79998779297</ele>
        <time>2013-12-04T10:11:51Z</time>
      </trkpt>
      <trkpt lat="47.16861" lon="5.54653">
        <ele>316.60000610352</ele>
        <time>2013-12-04T10:12:04Z</time>
      </trkpt>
      <trkpt lat="47.16878" lon="5.54656">
        <ele>319.60000610352</ele>
        <time>2013-12-04T10:12:11Z</time>
      </trkpt>
      <trkpt lat="47.16895" lon="5.5467">
        <ele>322.79998779297</ele>
        <time>2013-12-04T10:12:20Z</time>
      </trkpt>
      <trkpt lat="47.16919" lon="5.54693">
        <ele>325.79998779297</ele>
        <time>2013-12-04T10:12:32Z</time>
      </trkpt>
      <trkpt lat="47.16936" lon="5.54712">
        <ele>328.79998779297</ele>
        <time>2013-12-04T10:12:45Z</time>
      </trkpt>
      <trkpt lat="47.16938" lon="5.54713">
        <ele>329.20001220703</ele>
        <time>2013-12-04T10:12:46Z</time>
      </trkpt>
      <trkpt lat="47.16939" lon="5.54718">
        <ele>329.39999389648</ele>
        <time>2013-12-04T10:12:48Z</time>
      </trkpt>
      <trkpt lat="47.16952" lon="5.54739">
        <ele>331</ele>
        <time>2013-12-04T10:12:58Z</time>
      </trkpt>
      <trkpt lat="47.16948" lon="5.54745">
        <ele>332</ele>
        <time>2013-12-04T10:13:04Z</time>
      </trkpt>
      <trkpt lat="47.16923" lon="5.54752">
        <ele>333.60000610352</ele>
        <time>2013-12-04T10:13:22Z</time>
      </trkpt>
      <trkpt lat="47.16901" lon="5.54757">
        <ele>335.39999389648</ele>
        <time>2013-12-04T10:13:35Z</time>
      </trkpt>
      <trkpt lat="47.16872" lon="5.54759">
        <ele>337</ele>
        <time>2013-12-04T10:13:49Z</time>
      </trkpt>
      <trkpt lat="47.16839" lon="5.54776">
        <ele>337</ele>
        <time>2013-12-04T10:14:03Z</time>
      </trkpt>
      <trkpt lat="47.16803" lon="5.54788">
        <ele>336.20001220703</ele>
        <time>2013-12-04T10:14:16Z</time>
      </trkpt>
      <trkpt lat="47.16783" lon="5.54798">
        <ele>333</ele>
        <time>2013-12-04T10:14:22Z</time>
      </trkpt>
      <trkpt lat="47.1676" lon="5.54811">
        <ele>329.60000610352</ele>
        <time>2013-12-04T10:14:30Z</time>
      </trkpt>
      <trkpt lat="47.16757" lon="5.54814">
        <ele>329.39999389648</ele>
        <time>2013-12-04T10:14:31Z</time>
      </trkpt>
      <trkpt lat="47.16748" lon="5.54826">
        <ele>326.79998779297</ele>
        <time>2013-12-04T10:14:36Z</time>
      </trkpt>
      <trkpt lat="47.16739" lon="5.54849">
        <ele>323.60000610352</ele>
        <time>2013-12-04T10:14:42Z</time>
      </trkpt>
      <trkpt lat="47.16738" lon="5.5488">
        <ele>320.39999389648</ele>
        <time>2013-12-04T10:14:49Z</time>
      </trkpt>
      <trkpt lat="47.16741" lon="5.54914">
        <ele>318</ele>
        <time>2013-12-04T10:14:56Z</time>
      </trkpt>
      <trkpt lat="47.16745" lon="5.54946">
        <ele>314.79998779297</ele>
        <time>2013-12-04T10:15:05Z</time>
      </trkpt>
      <trkpt lat="47.16745" lon="5.54954">
        <ele>314.20001220703</ele>
        <time>2013-12-04T10:15:18Z</time>
      </trkpt>
      <trkpt lat="47.16745" lon="5.55003">
        <ele>316</ele>
        <time>2013-12-04T10:15:35Z</time>
      </trkpt>
      <trkpt lat="47.16745" lon="5.55005">
        <ele>316.39999389648</ele>
        <time>2013-12-04T10:15:36Z</time>
      </trkpt>
      <trkpt lat="47.16749" lon="5.55025">
        <ele>317.39999389648</ele>
        <time>2013-12-04T10:15:48Z</time>
      </trkpt>
      <trkpt lat="47.16757" lon="5.55047">
        <ele>317.60000610352</ele>
        <time>2013-12-04T10:16:05Z</time>
      </trkpt>
      <trkpt lat="47.16757" lon="5.55049">
        <ele>317.60000610352</ele>
        <time>2013-12-04T10:16:07Z</time>
      </trkpt>
      <trkpt lat="47.16771" lon="5.55094">
        <ele>318.79998779297</ele>
        <time>2013-12-04T10:16:22Z</time>
      </trkpt>
      <trkpt lat="47.16791" lon="5.55138">
        <ele>319.60000610352</ele>
        <time>2013-12-04T10:16:38Z</time>
      </trkpt>
      <trkpt lat="47.16811" lon="5.55188">
        <ele>319.60000610352</ele>
        <time>2013-12-04T10:16:52Z</time>
      </trkpt>
      <trkpt lat="47.16821" lon="5.55208">
        <ele>317.39999389648</ele>
        <time>2013-12-04T10:16:57Z</time>
      </trkpt>
      <trkpt lat="47.16851" lon="5.55247">
        <ele>317.20001220703</ele>
        <time>2013-12-04T10:17:11Z</time>
      </trkpt>
      <trkpt lat="47.16885" lon="5.55287">
        <ele>317.20001220703</ele>
        <time>2013-12-04T10:17:26Z</time>
      </trkpt>
      <trkpt lat="47.16909" lon="5.55314">
        <ele>315.60000610352</ele>
        <time>2013-12-04T10:17:38Z</time>
      </trkpt>
      <trkpt lat="47.16942" lon="5.55326">
        <ele>313.60000610352</ele>
        <time>2013-12-04T10:17:50Z</time>
      </trkpt>
      <trkpt lat="47.16944" lon="5.5533">
        <ele>313.39999389648</ele>
        <time>2013-12-04T10:17:51Z</time>
      </trkpt>
      <trkpt lat="47.16954" lon="5.55356">
        <ele>309.60000610352</ele>
        <time>2013-12-04T10:17:56Z</time>
      </trkpt>
      <trkpt lat="47.16961" lon="5.55379">
        <ele>306.20001220703</ele>
        <time>2013-12-04T10:18:00Z</time>
      </trkpt>
      <trkpt lat="47.16963" lon="5.55385">
        <ele>305.79998779297</ele>
        <time>2013-12-04T10:18:01Z</time>
      </trkpt>
      <trkpt lat="47.16974" lon="5.55419">
        <ele>303.20001220703</ele>
        <time>2013-12-04T10:18:08Z</time>
      </trkpt>
      <trkpt lat="47.16985" lon="5.55455">
        <ele>299.79998779297</ele>
        <time>2013-12-04T10:18:15Z</time>
      </trkpt>
      <trkpt lat="47.16987" lon="5.5546">
        <ele>299.60000610352</ele>
        <time>2013-12-04T10:18:16Z</time>
      </trkpt>
      <trkpt lat="47.17002" lon="5.55494">
        <ele>298.39999389648</ele>
        <time>2013-12-04T10:18:29Z</time>
      </trkpt>
      <trkpt lat="47.17025" lon="5.55539">
        <ele>295</ele>
        <time>2013-12-04T10:18:44Z</time>
      </trkpt>
      <trkpt lat="47.17044" lon="5.55582">
        <ele>292</ele>
        <time>2013-12-04T10:18:55Z</time>
      </trkpt>
      <trkpt lat="47.17063" lon="5.55612">
        <ele>289</ele>
        <time>2013-12-04T10:19:05Z</time>
      </trkpt>
      <trkpt lat="47.17067" lon="5.55622">
        <ele>287.39999389648</ele>
        <time>2013-12-04T10:19:14Z</time>
      </trkpt>
      <trkpt lat="47.17067" lon="5.55626">
        <ele>283.60000610352</ele>
        <time>2013-12-04T10:19:20Z</time>
      </trkpt>
      <trkpt lat="47.17067" lon="5.55634">
        <ele>280.20001220703</ele>
        <time>2013-12-04T10:19:25Z</time>
      </trkpt>
      <trkpt lat="47.17064" lon="5.5564">
        <ele>276.39999389648</ele>
        <time>2013-12-04T10:19:29Z</time>
      </trkpt>
      <trkpt lat="47.17059" lon="5.55647">
        <ele>272.79998779297</ele>
        <time>2013-12-04T10:19:33Z</time>
      </trkpt>
      <trkpt lat="47.17057" lon="5.55653">
        <ele>270.60000610352</ele>
        <time>2013-12-04T10:19:39Z</time>
      </trkpt>
      <trkpt lat="47.17052" lon="5.5566">
        <ele>266.39999389648</ele>
        <time>2013-12-04T10:19:53Z</time>
      </trkpt>
      <trkpt lat="47.17052" lon="5.55661">
        <ele>265.79998779297</ele>
        <time>2013-12-04T10:19:54Z</time>
      </trkpt>
      <trkpt lat="47.1703" lon="5.55671">
        <ele>259.79998779297</ele>
        <time>2013-12-04T10:20:59Z</time>
      </trkpt>
      <trkpt lat="47.17018" lon="5.5567">
        <ele>256.79998779297</ele>
        <time>2013-12-04T10:21:05Z</time>
      </trkpt>
      <trkpt lat="47.17006" lon="5.55677">
        <ele>253.80000305176</ele>
        <time>2013-12-04T10:21:11Z</time>
      </trkpt>
      <trkpt lat="47.17002" lon="5.5568">
        <ele>253.60000610352</ele>
        <time>2013-12-04T10:21:24Z</time>
      </trkpt>
      <trkpt lat="47.17001" lon="5.55686">
        <ele>253.60000610352</ele>
        <time>2013-12-04T10:21:41Z</time>
      </trkpt>
      <trkpt lat="47.17001" lon="5.5569">
        <ele>253.19999694824</ele>
        <time>2013-12-04T10:21:47Z</time>
      </trkpt>
      <trkpt lat="47.1702" lon="5.55718">
        <ele>252</ele>
        <time>2013-12-04T10:22:02Z</time>
      </trkpt>
      <trkpt lat="47.17046" lon="5.55752">
        <ele>248.80000305176</ele>
        <time>2013-12-04T10:22:14Z</time>
      </trkpt>
      <trkpt lat="47.1706" lon="5.55771">
        <ele>245.39999389648</ele>
        <time>2013-12-04T10:22:20Z</time>
      </trkpt>
      <trkpt lat="47.17063" lon="5.55777">
        <ele>245.19999694824</ele>
        <time>2013-12-04T10:22:21Z</time>
      </trkpt>
      <trkpt lat="47.17081" lon="5.55793">
        <ele>242</ele>
        <time>2013-12-04T10:22:27Z</time>
      </trkpt>
      <trkpt lat="47.17101" lon="5.55809">
        <ele>239.39999389648</ele>
        <time>2013-12-04T10:22:38Z</time>
      </trkpt>
      <trkpt lat="47.17117" lon="5.55825">
        <ele>236</ele>
        <time>2013-12-04T10:22:46Z</time>
      </trkpt>
      <trkpt lat="47.17125" lon="5.5583">
        <ele>234.80000305176</ele>
        <time>2013-12-04T10:22:49Z</time>
      </trkpt>
      <trkpt lat="47.17131" lon="5.5583">
        <ele>234.60000610352</ele>
        <time>2013-12-04T10:22:52Z</time>
      </trkpt>
      <trkpt lat="47.17148" lon="5.55816">
        <ele>234.60000610352</ele>
        <time>2013-12-04T10:23:08Z</time>
      </trkpt>
      <trkpt lat="47.17151" lon="5.55811">
        <ele>234</ele>
        <time>2013-12-04T10:23:11Z</time>
      </trkpt>
      <trkpt lat="47.17153" lon="5.55808">
        <ele>233.80000305176</ele>
        <time>2013-12-04T10:23:14Z</time>
      </trkpt>
      <trkpt lat="47.1716" lon="5.55804">
        <ele>237</ele>
        <time>2013-12-04T10:23:20Z</time>
      </trkpt>
      <trkpt lat="47.17163" lon="5.55804">
        <ele>237.19999694824</ele>
        <time>2013-12-04T10:23:34Z</time>
      </trkpt>
      <trkpt lat="47.17161" lon="5.55801">
        <ele>237.19999694824</ele>
        <time>2013-12-04T10:23:43Z</time>
      </trkpt>
      <trkpt lat="47.17164" lon="5.55798">
        <ele>238</ele>
        <time>2013-12-04T10:23:53Z</time>
      </trkpt>
      <trkpt lat="47.1718" lon="5.55779">
        <ele>241</ele>
        <time>2013-12-04T10:24:04Z</time>
      </trkpt>
      <trkpt lat="47.17189" lon="5.55763">
        <ele>244</ele>
        <time>2013-12-04T10:24:13Z</time>
      </trkpt>
      <trkpt lat="47.17191" lon="5.55755">
        <ele>245.60000610352</ele>
        <time>2013-12-04T10:24:17Z</time>
      </trkpt>
      <trkpt lat="47.17194" lon="5.55749">
        <ele>246.60000610352</ele>
        <time>2013-12-04T10:24:20Z</time>
      </trkpt>
      <trkpt lat="47.17198" lon="5.55739">
        <ele>248.80000305176</ele>
        <time>2013-12-04T10:24:26Z</time>
      </trkpt>
      <trkpt lat="47.17201" lon="5.5572">
        <ele>252</ele>
        <time>2013-12-04T10:24:35Z</time>
      </trkpt>
      <trkpt lat="47.1721" lon="5.55697">
        <ele>255.39999389648</ele>
        <time>2013-12-04T10:24:47Z</time>
      </trkpt>
      <trkpt lat="47.17227" lon="5.55674">
        <ele>258.20001220703</ele>
        <time>2013-12-04T10:24:59Z</time>
      </trkpt>
      <trkpt lat="47.17236" lon="5.5565">
        <ele>261.20001220703</ele>
        <time>2013-12-04T10:25:10Z</time>
      </trkpt>
      <trkpt lat="47.1724" lon="5.55639">
        <ele>264.39999389648</ele>
        <time>2013-12-04T10:25:25Z</time>
      </trkpt>
      <trkpt lat="47.17258" lon="5.55608">
        <ele>267.20001220703</ele>
        <time>2013-12-04T10:25:54Z</time>
      </trkpt>
      <trkpt lat="47.17282" lon="5.55586">
        <ele>267.20001220703</ele>
        <time>2013-12-04T10:26:06Z</time>
      </trkpt>
      <trkpt lat="47.17285" lon="5.55576">
        <ele>267.20001220703</ele>
        <time>2013-12-04T10:26:12Z</time>
      </trkpt>
      <trkpt lat="47.1728" lon="5.55561">
        <ele>267.20001220703</ele>
        <time>2013-12-04T10:26:28Z</time>
      </trkpt>
      <trkpt lat="47.17282" lon="5.55558">
        <ele>267.20001220703</ele>
        <time>2013-12-04T10:26:37Z</time>
      </trkpt>
      <trkpt lat="47.17305" lon="5.55543">
        <ele>268.39999389648</ele>
        <time>2013-12-04T10:26:53Z</time>
      </trkpt>
      <trkpt lat="47.17324" lon="5.55514">
        <ele>271.60000610352</ele>
        <time>2013-12-04T10:27:08Z</time>
      </trkpt>
      <trkpt lat="47.17341" lon="5.55498">
        <ele>273.79998779297</ele>
        <time>2013-12-04T10:27:22Z</time>
      </trkpt>
      <trkpt lat="47.17373" lon="5.55504">
        <ele>273.79998779297</ele>
        <time>2013-12-04T10:27:38Z</time>
      </trkpt>
      <trkpt lat="47.17384" lon="5.55503">
        <ele>273.79998779297</ele>
        <time>2013-12-04T10:27:44Z</time>
      </trkpt>
      <trkpt lat="47.17407" lon="5.55495">
        <ele>277.20001220703</ele>
        <time>2013-12-04T10:27:53Z</time>
      </trkpt>
      <trkpt lat="47.17432" lon="5.55501">
        <ele>279</ele>
        <time>2013-12-04T10:28:08Z</time>
      </trkpt>
      <trkpt lat="47.17456" lon="5.55492">
        <ele>282</ele>
        <time>2013-12-04T10:28:15Z</time>
      </trkpt>
      <trkpt lat="47.17467" lon="5.55486">
        <ele>284.60000610352</ele>
        <time>2013-12-04T10:28:21Z</time>
      </trkpt>
      <trkpt lat="47.17488" lon="5.55487">
        <ele>285</ele>
        <time>2013-12-04T10:28:36Z</time>
      </trkpt>
      <trkpt lat="47.17522" lon="5.55479">
        <ele>285</ele>
        <time>2013-12-04T10:28:52Z</time>
      </trkpt>
      <trkpt lat="47.17541" lon="5.5547">
        <ele>285.60000610352</ele>
        <time>2013-12-04T10:29:02Z</time>
      </trkpt>
      <trkpt lat="47.1757" lon="5.55467">
        <ele>286.79998779297</ele>
        <time>2013-12-04T10:29:10Z</time>
      </trkpt>
      <trkpt lat="47.17584" lon="5.55458">
        <ele>290.20001220703</ele>
        <time>2013-12-04T10:29:20Z</time>
      </trkpt>
      <trkpt lat="47.17586" lon="5.55458">
        <ele>291.79998779297</ele>
        <time>2013-12-04T10:29:24Z</time>
      </trkpt>
      <trkpt lat="47.17587" lon="5.55458">
        <ele>292.20001220703</ele>
        <time>2013-12-04T10:29:25Z</time>
      </trkpt>
      <trkpt lat="47.17606" lon="5.55482">
        <ele>294.79998779297</ele>
        <time>2013-12-04T10:29:38Z</time>
      </trkpt>
      <trkpt lat="47.17608" lon="5.55487">
        <ele>294.79998779297</ele>
        <time>2013-12-04T10:29:40Z</time>
      </trkpt>
      <trkpt lat="47.17611" lon="5.55493">
        <ele>294.79998779297</ele>
        <time>2013-12-04T10:29:43Z</time>
      </trkpt>
      <trkpt lat="47.17611" lon="5.55512">
        <ele>294.79998779297</ele>
        <time>2013-12-04T10:29:50Z</time>
      </trkpt>
      <trkpt lat="47.17619" lon="5.55562">
        <ele>292.20001220703</ele>
        <time>2013-12-04T10:30:03Z</time>
      </trkpt>
      <trkpt lat="47.17631" lon="5.55585">
        <ele>291.39999389648</ele>
        <time>2013-12-04T10:30:15Z</time>
      </trkpt>
      <trkpt lat="47.17644" lon="5.55601">
        <ele>294.79998779297</ele>
        <time>2013-12-04T10:30:25Z</time>
      </trkpt>
      <trkpt lat="47.17646" lon="5.55606">
        <ele>295.79998779297</ele>
        <time>2013-12-04T10:30:27Z</time>
      </trkpt>
      <trkpt lat="47.17669" lon="5.55632">
        <ele>299</ele>
        <time>2013-12-04T10:30:43Z</time>
      </trkpt>
      <trkpt lat="47.17686" lon="5.55644">
        <ele>301.20001220703</ele>
        <time>2013-12-04T10:30:53Z</time>
      </trkpt>
      <trkpt lat="47.17703" lon="5.5567">
        <ele>304.39999389648</ele>
        <time>2013-12-04T10:31:05Z</time>
      </trkpt>
      <trkpt lat="47.17707" lon="5.55686">
        <ele>306.20001220703</ele>
        <time>2013-12-04T10:31:11Z</time>
      </trkpt>
      <trkpt lat="47.17707" lon="5.55704">
        <ele>309.39999389648</ele>
        <time>2013-12-04T10:31:25Z</time>
      </trkpt>
      <trkpt lat="47.17706" lon="5.55719">
        <ele>312.60000610352</ele>
        <time>2013-12-04T10:31:37Z</time>
      </trkpt>
      <trkpt lat="47.17703" lon="5.55737">
        <ele>315.79998779297</ele>
        <time>2013-12-04T10:31:49Z</time>
      </trkpt>
      <trkpt lat="47.17703" lon="5.55739">
        <ele>315.79998779297</ele>
        <time>2013-12-04T10:31:50Z</time>
      </trkpt>
      <trkpt lat="47.17699" lon="5.55762">
        <ele>319</ele>
        <time>2013-12-04T10:32:05Z</time>
      </trkpt>
      <trkpt lat="47.17696" lon="5.55778">
        <ele>322</ele>
        <time>2013-12-04T10:32:20Z</time>
      </trkpt>
      <trkpt lat="47.17694" lon="5.55782">
        <ele>323.79998779297</ele>
        <time>2013-12-04T10:32:37Z</time>
      </trkpt>
      <trkpt lat="47.17694" lon="5.558">
        <ele>326.79998779297</ele>
        <time>2013-12-04T10:32:54Z</time>
      </trkpt>
      <trkpt lat="47.1769" lon="5.55819">
        <ele>329.79998779297</ele>
        <time>2013-12-04T10:33:09Z</time>
      </trkpt>
      <trkpt lat="47.17689" lon="5.55839">
        <ele>332.79998779297</ele>
        <time>2013-12-04T10:33:23Z</time>
      </trkpt>
      <trkpt lat="47.17693" lon="5.55859">
        <ele>335.20001220703</ele>
        <time>2013-12-04T10:33:37Z</time>
      </trkpt>
      <trkpt lat="47.17695" lon="5.55888">
        <ele>337.79998779297</ele>
        <time>2013-12-04T10:33:53Z</time>
      </trkpt>
      <trkpt lat="47.17695" lon="5.55891">
        <ele>338.60000610352</ele>
        <time>2013-12-04T10:33:56Z</time>
      </trkpt>
      <trkpt lat="47.17692" lon="5.55899">
        <ele>339.79998779297</ele>
        <time>2013-12-04T10:34:02Z</time>
      </trkpt>
      <trkpt lat="47.17688" lon="5.55906">
        <ele>342</ele>
        <time>2013-12-04T10:34:07Z</time>
      </trkpt>
      <trkpt lat="47.17672" lon="5.55917">
        <ele>345.20001220703</ele>
        <time>2013-12-04T10:34:19Z</time>
      </trkpt>
      <trkpt lat="47.17655" lon="5.55932">
        <ele>348</ele>
        <time>2013-12-04T10:34:30Z</time>
      </trkpt>
      <trkpt lat="47.17651" lon="5.55972">
        <ele>351</ele>
        <time>2013-12-04T10:34:44Z</time>
      </trkpt>
      <trkpt lat="47.17652" lon="5.55993">
        <ele>354.20001220703</ele>
        <time>2013-12-04T10:34:55Z</time>
      </trkpt>
      <trkpt lat="47.1764" lon="5.56033">
        <ele>356.60000610352</ele>
        <time>2013-12-04T10:35:10Z</time>
      </trkpt>
      <trkpt lat="47.17638" lon="5.56083">
        <ele>358.20001220703</ele>
        <time>2013-12-04T10:35:25Z</time>
      </trkpt>
      <trkpt lat="47.17643" lon="5.56119">
        <ele>359.79998779297</ele>
        <time>2013-12-04T10:35:38Z</time>
      </trkpt>
      <trkpt lat="47.1765" lon="5.56157">
        <ele>361.39999389648</ele>
        <time>2013-12-04T10:35:51Z</time>
      </trkpt>
      <trkpt lat="47.17658" lon="5.56193">
        <ele>362.20001220703</ele>
        <time>2013-12-04T10:36:03Z</time>
      </trkpt>
      <trkpt lat="47.17663" lon="5.56211">
        <ele>362.20001220703</ele>
        <time>2013-12-04T10:36:09Z</time>
      </trkpt>
      <trkpt lat="47.17676" lon="5.56248">
        <ele>363</ele>
        <time>2013-12-04T10:36:23Z</time>
      </trkpt>
      <trkpt lat="47.17696" lon="5.56273">
        <ele>363</ele>
        <time>2013-12-04T10:36:38Z</time>
      </trkpt>
      <trkpt lat="47.1772" lon="5.56287">
        <ele>363</ele>
        <time>2013-12-04T10:36:55Z</time>
      </trkpt>
      <trkpt lat="47.17746" lon="5.56306">
        <ele>363</ele>
        <time>2013-12-04T10:37:07Z</time>
      </trkpt>
      <trkpt lat="47.17773" lon="5.56342">
        <ele>363.39999389648</ele>
        <time>2013-12-04T10:37:21Z</time>
      </trkpt>
      <trkpt lat="47.17798" lon="5.56365">
        <ele>364.60000610352</ele>
        <time>2013-12-04T10:37:34Z</time>
      </trkpt>
      <trkpt lat="47.17806" lon="5.56376">
        <ele>364.60000610352</ele>
        <time>2013-12-04T10:37:39Z</time>
      </trkpt>
      <trkpt lat="47.17828" lon="5.56392">
        <ele>364.60000610352</ele>
        <time>2013-12-04T10:37:53Z</time>
      </trkpt>
      <trkpt lat="47.17844" lon="5.56396">
        <ele>365.20001220703</ele>
        <time>2013-12-04T10:38:05Z</time>
      </trkpt>
      <trkpt lat="47.17851" lon="5.56399">
        <ele>365.39999389648</ele>
        <time>2013-12-04T10:38:09Z</time>
      </trkpt>
      <trkpt lat="47.17881" lon="5.56434">
        <ele>365.39999389648</ele>
        <time>2013-12-04T10:38:24Z</time>
      </trkpt>
      <trkpt lat="47.1789" lon="5.56443">
        <ele>365.39999389648</ele>
        <time>2013-12-04T10:38:28Z</time>
      </trkpt>
      <trkpt lat="47.1791" lon="5.56477">
        <ele>365.39999389648</ele>
        <time>2013-12-04T10:38:39Z</time>
      </trkpt>
      <trkpt lat="47.1794" lon="5.56514">
        <ele>365.39999389648</ele>
        <time>2013-12-04T10:38:55Z</time>
      </trkpt>
      <trkpt lat="47.1795" lon="5.56519">
        <ele>365.39999389648</ele>
        <time>2013-12-04T10:39:02Z</time>
      </trkpt>
      <trkpt lat="47.17958" lon="5.5654">
        <ele>365.39999389648</ele>
        <time>2013-12-04T10:39:09Z</time>
      </trkpt>
      <trkpt lat="47.17974" lon="5.56569">
        <ele>366.39999389648</ele>
        <time>2013-12-04T10:39:20Z</time>
      </trkpt>
      <trkpt lat="47.17998" lon="5.56602">
        <ele>366.39999389648</ele>
        <time>2013-12-04T10:39:34Z</time>
      </trkpt>
      <trkpt lat="47.18033" lon="5.56635">
        <ele>366.39999389648</ele>
        <time>2013-12-04T10:39:48Z</time>
      </trkpt>
      <trkpt lat="47.18056" lon="5.56674">
        <ele>366.39999389648</ele>
        <time>2013-12-04T10:40:01Z</time>
      </trkpt>
      <trkpt lat="47.18079" lon="5.56688">
        <ele>366.39999389648</ele>
        <time>2013-12-04T10:40:14Z</time>
      </trkpt>
      <trkpt lat="47.18108" lon="5.56698">
        <ele>366.39999389648</ele>
        <time>2013-12-04T10:40:26Z</time>
      </trkpt>
      <trkpt lat="47.18121" lon="5.56708">
        <ele>366.39999389648</ele>
        <time>2013-12-04T10:40:31Z</time>
      </trkpt>
      <trkpt lat="47.1815" lon="5.56741">
        <ele>366.39999389648</ele>
        <time>2013-12-04T10:40:45Z</time>
      </trkpt>
      <trkpt lat="47.18167" lon="5.56782">
        <ele>366.39999389648</ele>
        <time>2013-12-04T10:40:59Z</time>
      </trkpt>
      <trkpt lat="47.18179" lon="5.56813">
        <ele>364</ele>
        <time>2013-12-04T10:41:08Z</time>
      </trkpt>
      <trkpt lat="47.18195" lon="5.5688">
        <ele>361.20001220703</ele>
        <time>2013-12-04T10:41:24Z</time>
      </trkpt>
      <trkpt lat="47.1821" lon="5.56919">
        <ele>358</ele>
        <time>2013-12-04T10:41:34Z</time>
      </trkpt>
      <trkpt lat="47.18228" lon="5.56958">
        <ele>354.79998779297</ele>
        <time>2013-12-04T10:41:45Z</time>
      </trkpt>
      <trkpt lat="47.18234" lon="5.56974">
        <ele>352.79998779297</ele>
        <time>2013-12-04T10:41:49Z</time>
      </trkpt>
      <trkpt lat="47.18247" lon="5.57002">
        <ele>350.39999389648</ele>
        <time>2013-12-04T10:41:57Z</time>
      </trkpt>
      <trkpt lat="47.18252" lon="5.5702">
        <ele>348.39999389648</ele>
        <time>2013-12-04T10:42:01Z</time>
      </trkpt>
      <trkpt lat="47.18256" lon="5.57035">
        <ele>346.79998779297</ele>
        <time>2013-12-04T10:42:05Z</time>
      </trkpt>
      <trkpt lat="47.18261" lon="5.57051">
        <ele>344</ele>
        <time>2013-12-04T10:42:10Z</time>
      </trkpt>
      <trkpt lat="47.18262" lon="5.57056">
        <ele>343.79998779297</ele>
        <time>2013-12-04T10:42:12Z</time>
      </trkpt>
      <trkpt lat="47.18284" lon="5.57047">
        <ele>340</ele>
        <time>2013-12-04T10:42:21Z</time>
      </trkpt>
      <trkpt lat="47.1829" lon="5.57055">
        <ele>337.60000610352</ele>
        <time>2013-12-04T10:42:24Z</time>
      </trkpt>
      <trkpt lat="47.18289" lon="5.57074">
        <ele>334.20001220703</ele>
        <time>2013-12-04T10:42:30Z</time>
      </trkpt>
      <trkpt lat="47.18285" lon="5.57092">
        <ele>330.79998779297</ele>
        <time>2013-12-04T10:42:35Z</time>
      </trkpt>
      <trkpt lat="47.18285" lon="5.57095">
        <ele>330.39999389648</ele>
        <time>2013-12-04T10:42:36Z</time>
      </trkpt>
      <trkpt lat="47.18282" lon="5.5712">
        <ele>327</ele>
        <time>2013-12-04T10:42:42Z</time>
      </trkpt>
      <trkpt lat="47.18281" lon="5.57147">
        <ele>323.39999389648</ele>
        <time>2013-12-04T10:42:49Z</time>
      </trkpt>
      <trkpt lat="47.18278" lon="5.57167">
        <ele>320.20001220703</ele>
        <time>2013-12-04T10:42:54Z</time>
      </trkpt>
      <trkpt lat="47.18271" lon="5.57193">
        <ele>317</ele>
        <time>2013-12-04T10:43:02Z</time>
      </trkpt>
      <trkpt lat="47.18272" lon="5.57195">
        <ele>316.20001220703</ele>
        <time>2013-12-04T10:43:03Z</time>
      </trkpt>
      <trkpt lat="47.18276" lon="5.57196">
        <ele>315.60000610352</ele>
        <time>2013-12-04T10:43:05Z</time>
      </trkpt>
      <trkpt lat="47.18284" lon="5.57191">
        <ele>315.39999389648</ele>
        <time>2013-12-04T10:43:08Z</time>
      </trkpt>
      <trkpt lat="47.18293" lon="5.57181">
        <ele>313.60000610352</ele>
        <time>2013-12-04T10:43:12Z</time>
      </trkpt>
      <trkpt lat="47.18313" lon="5.5714">
        <ele>310</ele>
        <time>2013-12-04T10:43:25Z</time>
      </trkpt>
      <trkpt lat="47.18336" lon="5.57105">
        <ele>307</ele>
        <time>2013-12-04T10:43:37Z</time>
      </trkpt>
      <trkpt lat="47.18359" lon="5.57082">
        <ele>304</ele>
        <time>2013-12-04T10:43:46Z</time>
      </trkpt>
      <trkpt lat="47.18385" lon="5.57057">
        <ele>301.79998779297</ele>
        <time>2013-12-04T10:43:58Z</time>
      </trkpt>
      <trkpt lat="47.18402" lon="5.57014">
        <ele>301.79998779297</ele>
        <time>2013-12-04T10:44:15Z</time>
      </trkpt>
      <trkpt lat="47.18408" lon="5.57013">
        <ele>301</ele>
        <time>2013-12-04T10:44:31Z</time>
      </trkpt>
      <trkpt lat="47.18417" lon="5.57007">
        <ele>304</ele>
        <time>2013-12-04T10:44:38Z</time>
      </trkpt>
      <trkpt lat="47.18426" lon="5.57002">
        <ele>307.20001220703</ele>
        <time>2013-12-04T10:44:47Z</time>
      </trkpt>
      <trkpt lat="47.18431" lon="5.57002">
        <ele>310.39999389648</ele>
        <time>2013-12-04T10:45:01Z</time>
      </trkpt>
      <trkpt lat="47.18439" lon="5.56998">
        <ele>313.60000610352</ele>
        <time>2013-12-04T10:45:14Z</time>
      </trkpt>
      <trkpt lat="47.18443" lon="5.56998">
        <ele>314.39999389648</ele>
        <time>2013-12-04T10:45:17Z</time>
      </trkpt>
      <trkpt lat="47.18451" lon="5.56989">
        <ele>317.79998779297</ele>
        <time>2013-12-04T10:45:32Z</time>
      </trkpt>
      <trkpt lat="47.1846" lon="5.56984">
        <ele>321.20001220703</ele>
        <time>2013-12-04T10:45:47Z</time>
      </trkpt>
      <trkpt lat="47.18464" lon="5.5698">
        <ele>324.20001220703</ele>
        <time>2013-12-04T10:45:59Z</time>
      </trkpt>
      <trkpt lat="47.18475" lon="5.56971">
        <ele>326.60000610352</ele>
        <time>2013-12-04T10:46:14Z</time>
      </trkpt>
      <trkpt lat="47.18477" lon="5.56969">
        <ele>326.79998779297</ele>
        <time>2013-12-04T10:46:28Z</time>
      </trkpt>
      <trkpt lat="47.18486" lon="5.56972">
        <ele>328.79998779297</ele>
        <time>2013-12-04T10:46:46Z</time>
      </trkpt>
      <trkpt lat="47.18506" lon="5.56974">
        <ele>331</ele>
        <time>2013-12-04T10:47:01Z</time>
      </trkpt>
      <trkpt lat="47.18521" lon="5.56965">
        <ele>333.20001220703</ele>
        <time>2013-12-04T10:47:13Z</time>
      </trkpt>
      <trkpt lat="47.18548" lon="5.56953">
        <ele>335.60000610352</ele>
        <time>2013-12-04T10:47:27Z</time>
      </trkpt>
      <trkpt lat="47.18573" lon="5.56944">
        <ele>338.79998779297</ele>
        <time>2013-12-04T10:47:43Z</time>
      </trkpt>
      <trkpt lat="47.1859" lon="5.56941">
        <ele>341.60000610352</ele>
        <time>2013-12-04T10:47:58Z</time>
      </trkpt>
      <trkpt lat="47.1861" lon="5.56941">
        <ele>344.20001220703</ele>
        <time>2013-12-04T10:48:14Z</time>
      </trkpt>
      <trkpt lat="47.18615" lon="5.56936">
        <ele>345.39999389648</ele>
        <time>2013-12-04T10:48:29Z</time>
      </trkpt>
      <trkpt lat="47.18632" lon="5.56917">
        <ele>348.79998779297</ele>
        <time>2013-12-04T10:48:41Z</time>
      </trkpt>
      <trkpt lat="47.18652" lon="5.56914">
        <ele>351.79998779297</ele>
        <time>2013-12-04T10:48:52Z</time>
      </trkpt>
      <trkpt lat="47.18668" lon="5.56907">
        <ele>355</ele>
        <time>2013-12-04T10:49:03Z</time>
      </trkpt>
      <trkpt lat="47.18681" lon="5.569">
        <ele>358.20001220703</ele>
        <time>2013-12-04T10:49:12Z</time>
      </trkpt>
      <trkpt lat="47.18691" lon="5.56897">
        <ele>360.20001220703</ele>
        <time>2013-12-04T10:49:20Z</time>
      </trkpt>
      <trkpt lat="47.18699" lon="5.56894">
        <ele>361.60000610352</ele>
        <time>2013-12-04T10:49:23Z</time>
      </trkpt>
      <trkpt lat="47.18716" lon="5.56889">
        <ele>364.20001220703</ele>
        <time>2013-12-04T10:49:35Z</time>
      </trkpt>
      <trkpt lat="47.18727" lon="5.56886">
        <ele>365</ele>
        <time>2013-12-04T10:49:44Z</time>
      </trkpt>
      <trkpt lat="47.18736" lon="5.56883">
        <ele>365.79998779297</ele>
        <time>2013-12-04T10:49:51Z</time>
      </trkpt>
      <trkpt lat="47.1875" lon="5.56889">
        <ele>366.60000610352</ele>
        <time>2013-12-04T10:50:05Z</time>
      </trkpt>
      <trkpt lat="47.18755" lon="5.56882">
        <ele>367.39999389648</ele>
        <time>2013-12-04T10:50:20Z</time>
      </trkpt>
      <trkpt lat="47.18767" lon="5.56873">
        <ele>367.39999389648</ele>
        <time>2013-12-04T10:50:37Z</time>
      </trkpt>
      <trkpt lat="47.18776" lon="5.56876">
        <ele>368.60000610352</ele>
        <time>2013-12-04T10:50:53Z</time>
      </trkpt>
      <trkpt lat="47.18788" lon="5.56865">
        <ele>370.39999389648</ele>
        <time>2013-12-04T10:51:02Z</time>
      </trkpt>
      <trkpt lat="47.1882" lon="5.56856">
        <ele>371.60000610352</ele>
        <time>2013-12-04T10:51:17Z</time>
      </trkpt>
      <trkpt lat="47.18845" lon="5.56846">
        <ele>373</ele>
        <time>2013-12-04T10:51:29Z</time>
      </trkpt>
      <trkpt lat="47.18875" lon="5.56833">
        <ele>375.39999389648</ele>
        <time>2013-12-04T10:51:43Z</time>
      </trkpt>
      <trkpt lat="47.18908" lon="5.5682">
        <ele>377.79998779297</ele>
        <time>2013-12-04T10:52:00Z</time>
      </trkpt>
      <trkpt lat="47.18942" lon="5.56812">
        <ele>378.60000610352</ele>
        <time>2013-12-04T10:52:15Z</time>
      </trkpt>
      <trkpt lat="47.18984" lon="5.56794">
        <ele>378.60000610352</ele>
        <time>2013-12-04T10:52:32Z</time>
      </trkpt>
      <trkpt lat="47.18985" lon="5.56792">
        <ele>378.60000610352</ele>
        <time>2013-12-04T10:52:33Z</time>
      </trkpt>
      <trkpt lat="47.18974" lon="5.56747">
        <ele>378.60000610352</ele>
        <time>2013-12-04T10:52:45Z</time>
      </trkpt>
      <trkpt lat="47.18963" lon="5.56707">
        <ele>378.60000610352</ele>
        <time>2013-12-04T10:52:58Z</time>
      </trkpt>
      <trkpt lat="47.18945" lon="5.56659">
        <ele>377.20001220703</ele>
        <time>2013-12-04T10:53:11Z</time>
      </trkpt>
      <trkpt lat="47.18927" lon="5.56606">
        <ele>373.60000610352</ele>
        <time>2013-12-04T10:53:25Z</time>
      </trkpt>
      <trkpt lat="47.18906" lon="5.56562">
        <ele>370.39999389648</ele>
        <time>2013-12-04T10:53:38Z</time>
      </trkpt>
      <trkpt lat="47.18884" lon="5.56513">
        <ele>368</ele>
        <time>2013-12-04T10:53:52Z</time>
      </trkpt>
      <trkpt lat="47.18863" lon="5.56466">
        <ele>365.79998779297</ele>
        <time>2013-12-04T10:54:04Z</time>
      </trkpt>
      <trkpt lat="47.1885" lon="5.56436">
        <ele>363.60000610352</ele>
        <time>2013-12-04T10:54:11Z</time>
      </trkpt>
      <trkpt lat="47.18831" lon="5.56401">
        <ele>360.20001220703</ele>
        <time>2013-12-04T10:54:20Z</time>
      </trkpt>
      <trkpt lat="47.18829" lon="5.56398">
        <ele>360</ele>
        <time>2013-12-04T10:54:21Z</time>
      </trkpt>
      <trkpt lat="47.1881" lon="5.56375">
        <ele>357.20001220703</ele>
        <time>2013-12-04T10:54:28Z</time>
      </trkpt>
      <trkpt lat="47.18794" lon="5.56354">
        <ele>354</ele>
        <time>2013-12-04T10:54:35Z</time>
      </trkpt>
      <trkpt lat="47.18787" lon="5.56345">
        <ele>352.79998779297</ele>
        <time>2013-12-04T10:54:38Z</time>
      </trkpt>
      <trkpt lat="47.18763" lon="5.56316">
        <ele>349.20001220703</ele>
        <time>2013-12-04T10:54:48Z</time>
      </trkpt>
      <trkpt lat="47.18761" lon="5.56313">
        <ele>349</ele>
        <time>2013-12-04T10:54:49Z</time>
      </trkpt>
      <trkpt lat="47.18756" lon="5.56298">
        <ele>347.79998779297</ele>
        <time>2013-12-04T10:54:57Z</time>
      </trkpt>
      <trkpt lat="47.18756" lon="5.56293">
        <ele>347.79998779297</ele>
        <time>2013-12-04T10:55:01Z</time>
      </trkpt>
      <trkpt lat="47.18736" lon="5.56276">
        <ele>347.20001220703</ele>
        <time>2013-12-04T10:55:15Z</time>
      </trkpt>
      <trkpt lat="47.18707" lon="5.5624">
        <ele>346.39999389648</ele>
        <time>2013-12-04T10:55:29Z</time>
      </trkpt>
      <trkpt lat="47.18701" lon="5.56233">
        <ele>346</ele>
        <time>2013-12-04T10:55:33Z</time>
      </trkpt>
      <trkpt lat="47.18694" lon="5.56228">
        <ele>345.39999389648</ele>
        <time>2013-12-04T10:55:37Z</time>
      </trkpt>
      <trkpt lat="47.18692" lon="5.56222">
        <ele>345.39999389648</ele>
        <time>2013-12-04T10:55:40Z</time>
      </trkpt>
      <trkpt lat="47.18683" lon="5.56205">
        <ele>344.39999389648</ele>
        <time>2013-12-04T10:55:49Z</time>
      </trkpt>
      <trkpt lat="47.18672" lon="5.5619">
        <ele>344.39999389648</ele>
        <time>2013-12-04T10:56:04Z</time>
      </trkpt>
      <trkpt lat="47.18668" lon="5.56192">
        <ele>344.39999389648</ele>
        <time>2013-12-04T10:56:08Z</time>
      </trkpt>
      <trkpt lat="47.18658" lon="5.5619">
        <ele>344.39999389648</ele>
        <time>2013-12-04T10:56:14Z</time>
      </trkpt>
      <trkpt lat="47.18632" lon="5.56166">
        <ele>345.79998779297</ele>
        <time>2013-12-04T10:56:27Z</time>
      </trkpt>
      <trkpt lat="47.18623" lon="5.56156">
        <ele>348.79998779297</ele>
        <time>2013-12-04T10:56:32Z</time>
      </trkpt>
      <trkpt lat="47.18615" lon="5.56145">
        <ele>352</ele>
        <time>2013-12-04T10:56:39Z</time>
      </trkpt>
      <trkpt lat="47.18614" lon="5.56143">
        <ele>352.79998779297</ele>
        <time>2013-12-04T10:56:41Z</time>
      </trkpt>
      <trkpt lat="47.18606" lon="5.56127">
        <ele>355.79998779297</ele>
        <time>2013-12-04T10:56:51Z</time>
      </trkpt>
      <trkpt lat="47.1859" lon="5.56105">
        <ele>357.60000610352</ele>
        <time>2013-12-04T10:57:05Z</time>
      </trkpt>
      <trkpt lat="47.18577" lon="5.56092">
        <ele>360.79998779297</ele>
        <time>2013-12-04T10:57:16Z</time>
      </trkpt>
      <trkpt lat="47.18558" lon="5.56062">
        <ele>364</ele>
        <time>2013-12-04T10:57:31Z</time>
      </trkpt>
      <trkpt lat="47.18537" lon="5.56046">
        <ele>365.39999389648</ele>
        <time>2013-12-04T10:57:46Z</time>
      </trkpt>
      <trkpt lat="47.18517" lon="5.56024">
        <ele>366.20001220703</ele>
        <time>2013-12-04T10:58:00Z</time>
      </trkpt>
      <trkpt lat="47.18516" lon="5.56021">
        <ele>366.20001220703</ele>
        <time>2013-12-04T10:58:02Z</time>
      </trkpt>
      <trkpt lat="47.18512" lon="5.56018">
        <ele>367</ele>
        <time>2013-12-04T10:58:06Z</time>
      </trkpt>
      <trkpt lat="47.18489" lon="5.55989">
        <ele>367.20001220703</ele>
        <time>2013-12-04T10:58:19Z</time>
      </trkpt>
      <trkpt lat="47.18459" lon="5.55956">
        <ele>367.20001220703</ele>
        <time>2013-12-04T10:58:33Z</time>
      </trkpt>
      <trkpt lat="47.18428" lon="5.55918">
        <ele>364.79998779297</ele>
        <time>2013-12-04T10:58:47Z</time>
      </trkpt>
      <trkpt lat="47.18417" lon="5.5589">
        <ele>363.79998779297</ele>
        <time>2013-12-04T10:58:57Z</time>
      </trkpt>
      <trkpt lat="47.1842" lon="5.55879">
        <ele>363.79998779297</ele>
        <time>2013-12-04T10:59:04Z</time>
      </trkpt>
      <trkpt lat="47.18425" lon="5.55875">
        <ele>363.79998779297</ele>
        <time>2013-12-04T10:59:08Z</time>
      </trkpt>
      <trkpt lat="47.18433" lon="5.55867">
        <ele>363.79998779297</ele>
        <time>2013-12-04T10:59:13Z</time>
      </trkpt>
      <trkpt lat="47.1844" lon="5.55858">
        <ele>363.79998779297</ele>
        <time>2013-12-04T10:59:17Z</time>
      </trkpt>
      <trkpt lat="47.18464" lon="5.55819">
        <ele>363.79998779297</ele>
        <time>2013-12-04T10:59:31Z</time>
      </trkpt>
      <trkpt lat="47.1847" lon="5.55809">
        <ele>365.79998779297</ele>
        <time>2013-12-04T10:59:34Z</time>
      </trkpt>
      <trkpt lat="47.18494" lon="5.55771">
        <ele>367.39999389648</ele>
        <time>2013-12-04T10:59:48Z</time>
      </trkpt>
      <trkpt lat="47.18513" lon="5.55743">
        <ele>368</ele>
        <time>2013-12-04T10:59:58Z</time>
      </trkpt>
      <trkpt lat="47.1854" lon="5.5571">
        <ele>368</ele>
        <time>2013-12-04T11:00:11Z</time>
      </trkpt>
      <trkpt lat="47.18569" lon="5.55679">
        <ele>368</ele>
        <time>2013-12-04T11:00:24Z</time>
      </trkpt>
      <trkpt lat="47.18602" lon="5.55637">
        <ele>368</ele>
        <time>2013-12-04T11:00:39Z</time>
      </trkpt>
      <trkpt lat="47.18627" lon="5.55591">
        <ele>368</ele>
        <time>2013-12-04T11:00:52Z</time>
      </trkpt>
      <trkpt lat="47.18635" lon="5.55572">
        <ele>366</ele>
        <time>2013-12-04T11:00:58Z</time>
      </trkpt>
      <trkpt lat="47.18653" lon="5.55534">
        <ele>365.79998779297</ele>
        <time>2013-12-04T11:01:10Z</time>
      </trkpt>
      <trkpt lat="47.18663" lon="5.55486">
        <ele>365</ele>
        <time>2013-12-04T11:01:21Z</time>
      </trkpt>
      <trkpt lat="47.18671" lon="5.55437">
        <ele>367.79998779297</ele>
        <time>2013-12-04T11:01:34Z</time>
      </trkpt>
      <trkpt lat="47.1868" lon="5.55391">
        <ele>369.60000610352</ele>
        <time>2013-12-04T11:01:47Z</time>
      </trkpt>
      <trkpt lat="47.18694" lon="5.55344">
        <ele>370.39999389648</ele>
        <time>2013-12-04T11:02:00Z</time>
      </trkpt>
      <trkpt lat="47.18708" lon="5.55299">
        <ele>370.39999389648</ele>
        <time>2013-12-04T11:02:13Z</time>
      </trkpt>
      <trkpt lat="47.18702" lon="5.55237">
        <ele>370.39999389648</ele>
        <time>2013-12-04T11:02:27Z</time>
      </trkpt>
      <trkpt lat="47.1869" lon="5.55188">
        <ele>370.39999389648</ele>
        <time>2013-12-04T11:02:40Z</time>
      </trkpt>
      <trkpt lat="47.18681" lon="5.55132">
        <ele>370.39999389648</ele>
        <time>2013-12-04T11:02:54Z</time>
      </trkpt>
      <trkpt lat="47.1868" lon="5.5508">
        <ele>370.39999389648</ele>
        <time>2013-12-04T11:03:07Z</time>
      </trkpt>
      <trkpt lat="47.1868" lon="5.55029">
        <ele>370.39999389648</ele>
        <time>2013-12-04T11:03:20Z</time>
      </trkpt>
      <trkpt lat="47.18682" lon="5.54974">
        <ele>370.39999389648</ele>
        <time>2013-12-04T11:03:33Z</time>
      </trkpt>
      <trkpt lat="47.18691" lon="5.54922">
        <ele>369.39999389648</ele>
        <time>2013-12-04T11:03:44Z</time>
      </trkpt>
      <trkpt lat="47.18693" lon="5.54912">
        <ele>368.39999389648</ele>
        <time>2013-12-04T11:03:46Z</time>
      </trkpt>
      <trkpt lat="47.18695" lon="5.54895">
        <ele>367.60000610352</ele>
        <time>2013-12-04T11:03:50Z</time>
      </trkpt>
      <trkpt lat="47.18705" lon="5.5488">
        <ele>365.60000610352</ele>
        <time>2013-12-04T11:03:55Z</time>
      </trkpt>
      <trkpt lat="47.18713" lon="5.54882">
        <ele>364.39999389648</ele>
        <time>2013-12-04T11:03:58Z</time>
      </trkpt>
      <trkpt lat="47.18716" lon="5.54882">
        <ele>364.20001220703</ele>
        <time>2013-12-04T11:03:59Z</time>
      </trkpt>
      <trkpt lat="47.18737" lon="5.54886">
        <ele>361</ele>
        <time>2013-12-04T11:04:05Z</time>
      </trkpt>
      <trkpt lat="47.18741" lon="5.54888">
        <ele>360.20001220703</ele>
        <time>2013-12-04T11:04:07Z</time>
      </trkpt>
      <trkpt lat="47.18754" lon="5.54913">
        <ele>357</ele>
        <time>2013-12-04T11:04:19Z</time>
      </trkpt>
      <trkpt lat="47.18763" lon="5.54932">
        <ele>355.20001220703</ele>
        <time>2013-12-04T11:04:24Z</time>
      </trkpt>
      <trkpt lat="47.18769" lon="5.54973">
        <ele>353</ele>
        <time>2013-12-04T11:04:39Z</time>
      </trkpt>
      <trkpt lat="47.1877" lon="5.5498">
        <ele>353</ele>
        <time>2013-12-04T11:04:56Z</time>
      </trkpt>
      <trkpt lat="47.1877" lon="5.5498">
        <ele>353</ele>
        <time>2013-12-04T11:04:59Z</time>
      </trkpt>
      <trkpt lat="47.18771" lon="5.54983">
        <ele>353</ele>
        <time>2013-12-04T11:05:01Z</time>
      </trkpt>
      <trkpt lat="47.18771" lon="5.55024">
        <ele>353</ele>
        <time>2013-12-04T11:05:16Z</time>
      </trkpt>
      <trkpt lat="47.18773" lon="5.55026">
        <ele>353</ele>
        <time>2013-12-04T11:05:27Z</time>
      </trkpt>
      <trkpt lat="47.18781" lon="5.5506">
        <ele>350.39999389648</ele>
        <time>2013-12-04T11:05:42Z</time>
      </trkpt>
      <trkpt lat="47.18803" lon="5.55054">
        <ele>350</ele>
        <time>2013-12-04T11:05:50Z</time>
      </trkpt>
      <trkpt lat="47.18809" lon="5.55051">
        <ele>350</ele>
        <time>2013-12-04T11:05:54Z</time>
      </trkpt>
      <trkpt lat="47.18821" lon="5.55042">
        <ele>348</ele>
        <time>2013-12-04T11:06:01Z</time>
      </trkpt>
      <trkpt lat="47.18834" lon="5.55025">
        <ele>345</ele>
        <time>2013-12-04T11:06:10Z</time>
      </trkpt>
      <trkpt lat="47.18843" lon="5.55021">
        <ele>343</ele>
        <time>2013-12-04T11:06:16Z</time>
      </trkpt>
      <trkpt lat="47.1885" lon="5.55013">
        <ele>342.39999389648</ele>
        <time>2013-12-04T11:06:19Z</time>
      </trkpt>
      <trkpt lat="47.1887" lon="5.54989">
        <ele>340.39999389648</ele>
        <time>2013-12-04T11:06:25Z</time>
      </trkpt>
      <trkpt lat="47.189" lon="5.54962">
        <ele>337.39999389648</ele>
        <time>2013-12-04T11:06:37Z</time>
      </trkpt>
      <trkpt lat="47.18904" lon="5.54958">
        <ele>336</ele>
        <time>2013-12-04T11:06:39Z</time>
      </trkpt>
      <trkpt lat="47.18914" lon="5.54948">
        <ele>332.60000610352</ele>
        <time>2013-12-04T11:06:47Z</time>
      </trkpt>
      <trkpt lat="47.18934" lon="5.54932">
        <ele>333.79998779297</ele>
        <time>2013-12-04T11:06:59Z</time>
      </trkpt>
      <trkpt lat="47.18939" lon="5.54926">
        <ele>335.60000610352</ele>
        <time>2013-12-04T11:07:04Z</time>
      </trkpt>
      <trkpt lat="47.18947" lon="5.54915">
        <ele>338.60000610352</ele>
        <time>2013-12-04T11:07:11Z</time>
      </trkpt>
      <trkpt lat="47.18976" lon="5.54896">
        <ele>340.60000610352</ele>
        <time>2013-12-04T11:07:26Z</time>
      </trkpt>
      <trkpt lat="47.19011" lon="5.54873">
        <ele>337.60000610352</ele>
        <time>2013-12-04T11:07:39Z</time>
      </trkpt>
      <trkpt lat="47.19037" lon="5.5485">
        <ele>334.60000610352</ele>
        <time>2013-12-04T11:07:49Z</time>
      </trkpt>
      <trkpt lat="47.19062" lon="5.54835">
        <ele>331.39999389648</ele>
        <time>2013-12-04T11:07:58Z</time>
      </trkpt>
      <trkpt lat="47.19077" lon="5.54822">
        <ele>328.39999389648</ele>
        <time>2013-12-04T11:08:05Z</time>
      </trkpt>
      <trkpt lat="47.19073" lon="5.54803">
        <ele>327.20001220703</ele>
        <time>2013-12-04T11:08:09Z</time>
      </trkpt>
      <trkpt lat="47.19048" lon="5.54738">
        <ele>323.60000610352</ele>
        <time>2013-12-04T11:08:23Z</time>
      </trkpt>
      <trkpt lat="47.19038" lon="5.5471">
        <ele>320</ele>
        <time>2013-12-04T11:08:31Z</time>
      </trkpt>
      <trkpt lat="47.19028" lon="5.54693">
        <ele>316.39999389648</ele>
        <time>2013-12-04T11:08:36Z</time>
      </trkpt>
      <trkpt lat="47.1902" lon="5.54676">
        <ele>313.39999389648</ele>
        <time>2013-12-04T11:08:40Z</time>
      </trkpt>
      <trkpt lat="47.19016" lon="5.54668">
        <ele>310.20001220703</ele>
        <time>2013-12-04T11:08:44Z</time>
      </trkpt>
      <trkpt lat="47.19016" lon="5.54668">
        <ele>309.60000610352</ele>
        <time>2013-12-04T11:08:59Z</time>
      </trkpt>
      <trkpt lat="47.19015" lon="5.54663">
        <ele>309.60000610352</ele>
        <time>2013-12-04T11:09:13Z</time>
      </trkpt>
      <trkpt lat="47.19007" lon="5.54651">
        <ele>312.39999389648</ele>
        <time>2013-12-04T11:09:26Z</time>
      </trkpt>
      <trkpt lat="47.19006" lon="5.54649">
        <ele>313</ele>
        <time>2013-12-04T11:09:27Z</time>
      </trkpt>
      <trkpt lat="47.18996" lon="5.54626">
        <ele>316.79998779297</ele>
        <time>2013-12-04T11:09:35Z</time>
      </trkpt>
      <trkpt lat="47.18993" lon="5.54614">
        <ele>320</ele>
        <time>2013-12-04T11:09:42Z</time>
      </trkpt>
      <trkpt lat="47.18993" lon="5.54604">
        <ele>323.20001220703</ele>
        <time>2013-12-04T11:09:52Z</time>
      </trkpt>
      <trkpt lat="47.18991" lon="5.54598">
        <ele>326.39999389648</ele>
        <time>2013-12-04T11:10:02Z</time>
      </trkpt>
      <trkpt lat="47.18987" lon="5.54594">
        <ele>329.39999389648</ele>
        <time>2013-12-04T11:10:14Z</time>
      </trkpt>
      <trkpt lat="47.18981" lon="5.54583">
        <ele>332.79998779297</ele>
        <time>2013-12-04T11:10:27Z</time>
      </trkpt>
      <trkpt lat="47.18976" lon="5.54568">
        <ele>334.20001220703</ele>
        <time>2013-12-04T11:10:41Z</time>
      </trkpt>
      <trkpt lat="47.18965" lon="5.54542">
        <ele>335</ele>
        <time>2013-12-04T11:10:54Z</time>
      </trkpt>
      <trkpt lat="47.18945" lon="5.54497">
        <ele>332</ele>
        <time>2013-12-04T11:11:05Z</time>
      </trkpt>
      <trkpt lat="47.1893" lon="5.54462">
        <ele>328.79998779297</ele>
        <time>2013-12-04T11:11:16Z</time>
      </trkpt>
      <trkpt lat="47.18911" lon="5.5442">
        <ele>325.79998779297</ele>
        <time>2013-12-04T11:11:27Z</time>
      </trkpt>
      <trkpt lat="47.18898" lon="5.54387">
        <ele>322.60000610352</ele>
        <time>2013-12-04T11:11:35Z</time>
      </trkpt>
      <trkpt lat="47.18889" lon="5.54365">
        <ele>320.60000610352</ele>
        <time>2013-12-04T11:11:40Z</time>
      </trkpt>
      <trkpt lat="47.18879" lon="5.54336">
        <ele>317.39999389648</ele>
        <time>2013-12-04T11:11:47Z</time>
      </trkpt>
      <trkpt lat="47.18876" lon="5.54328">
        <ele>316.60000610352</ele>
        <time>2013-12-04T11:11:49Z</time>
      </trkpt>
      <trkpt lat="47.18868" lon="5.5431">
        <ele>313.39999389648</ele>
        <time>2013-12-04T11:11:54Z</time>
      </trkpt>
      <trkpt lat="47.1886" lon="5.54295">
        <ele>309.60000610352</ele>
        <time>2013-12-04T11:11:59Z</time>
      </trkpt>
      <trkpt lat="47.18857" lon="5.54286">
        <ele>306.60000610352</ele>
        <time>2013-12-04T11:12:07Z</time>
      </trkpt>
      <trkpt lat="47.18856" lon="5.54286">
        <ele>306.39999389648</ele>
        <time>2013-12-04T11:12:10Z</time>
      </trkpt>
      <trkpt lat="47.18848" lon="5.5427">
        <ele>309.39999389648</ele>
        <time>2013-12-04T11:12:18Z</time>
      </trkpt>
      <trkpt lat="47.18847" lon="5.54268">
        <ele>310.20001220703</ele>
        <time>2013-12-04T11:12:19Z</time>
      </trkpt>
      <trkpt lat="47.18844" lon="5.54261">
        <ele>311.20001220703</ele>
        <time>2013-12-04T11:12:21Z</time>
      </trkpt>
      <trkpt lat="47.18842" lon="5.54251">
        <ele>313</ele>
        <time>2013-12-04T11:12:25Z</time>
      </trkpt>
      <trkpt lat="47.18829" lon="5.54228">
        <ele>316</ele>
        <time>2013-12-04T11:12:33Z</time>
      </trkpt>
      <trkpt lat="47.18823" lon="5.54198">
        <ele>319.20001220703</ele>
        <time>2013-12-04T11:12:47Z</time>
      </trkpt>
      <trkpt lat="47.18816" lon="5.54176">
        <ele>321.60000610352</ele>
        <time>2013-12-04T11:13:01Z</time>
      </trkpt>
      <trkpt lat="47.18807" lon="5.54152">
        <ele>323.60000610352</ele>
        <time>2013-12-04T11:13:15Z</time>
      </trkpt>
      <trkpt lat="47.18796" lon="5.54121">
        <ele>326</ele>
        <time>2013-12-04T11:13:28Z</time>
      </trkpt>
      <trkpt lat="47.18779" lon="5.54089">
        <ele>329.20001220703</ele>
        <time>2013-12-04T11:13:41Z</time>
      </trkpt>
      <trkpt lat="47.18762" lon="5.54059">
        <ele>332.39999389648</ele>
        <time>2013-12-04T11:13:53Z</time>
      </trkpt>
      <trkpt lat="47.18751" lon="5.54026">
        <ele>335.60000610352</ele>
        <time>2013-12-04T11:14:05Z</time>
      </trkpt>
      <trkpt lat="47.18739" lon="5.53999">
        <ele>339</ele>
        <time>2013-12-04T11:14:16Z</time>
      </trkpt>
      <trkpt lat="47.18721" lon="5.53962">
        <ele>342</ele>
        <time>2013-12-04T11:14:31Z</time>
      </trkpt>
      <trkpt lat="47.18702" lon="5.5392">
        <ele>343.79998779297</ele>
        <time>2013-12-04T11:14:46Z</time>
      </trkpt>
      <trkpt lat="47.18697" lon="5.53912">
        <ele>344.20001220703</ele>
        <time>2013-12-04T11:14:51Z</time>
      </trkpt>
      <trkpt lat="47.18692" lon="5.53907">
        <ele>344.79998779297</ele>
        <time>2013-12-04T11:14:56Z</time>
      </trkpt>
      <trkpt lat="47.18678" lon="5.5389">
        <ele>345.79998779297</ele>
        <time>2013-12-04T11:15:11Z</time>
      </trkpt>
      <trkpt lat="47.18673" lon="5.53878">
        <ele>346.60000610352</ele>
        <time>2013-12-04T11:15:21Z</time>
      </trkpt>
      <trkpt lat="47.18663" lon="5.53853">
        <ele>346.60000610352</ele>
        <time>2013-12-04T11:15:36Z</time>
      </trkpt>
      <trkpt lat="47.18655" lon="5.53833">
        <ele>347.20001220703</ele>
        <time>2013-12-04T11:15:51Z</time>
      </trkpt>
      <trkpt lat="47.18642" lon="5.53816">
        <ele>347.39999389648</ele>
        <time>2013-12-04T11:15:59Z</time>
      </trkpt>
      <trkpt lat="47.18641" lon="5.53808">
        <ele>347.39999389648</ele>
        <time>2013-12-04T11:16:12Z</time>
      </trkpt>
      <trkpt lat="47.18643" lon="5.53806">
        <ele>347.39999389648</ele>
        <time>2013-12-04T11:16:27Z</time>
      </trkpt>
      <trkpt lat="47.18666" lon="5.53781">
        <ele>347.39999389648</ele>
        <time>2013-12-04T11:16:39Z</time>
      </trkpt>
      <trkpt lat="47.1869" lon="5.53755">
        <ele>347.39999389648</ele>
        <time>2013-12-04T11:16:50Z</time>
      </trkpt>
      <trkpt lat="47.18711" lon="5.53723">
        <ele>349</ele>
        <time>2013-12-04T11:17:01Z</time>
      </trkpt>
      <trkpt lat="47.18738" lon="5.537">
        <ele>350.60000610352</ele>
        <time>2013-12-04T11:17:12Z</time>
      </trkpt>
      <trkpt lat="47.18766" lon="5.53671">
        <ele>351.79998779297</ele>
        <time>2013-12-04T11:17:24Z</time>
      </trkpt>
      <trkpt lat="47.18797" lon="5.53643">
        <ele>352.20001220703</ele>
        <time>2013-12-04T11:17:36Z</time>
      </trkpt>
      <trkpt lat="47.1882" lon="5.53614">
        <ele>353</ele>
        <time>2013-12-04T11:17:48Z</time>
      </trkpt>
      <trkpt lat="47.18851" lon="5.53576">
        <ele>352.60000610352</ele>
        <time>2013-12-04T11:18:02Z</time>
      </trkpt>
      <trkpt lat="47.1886" lon="5.53561">
        <ele>350.20001220703</ele>
        <time>2013-12-04T11:18:06Z</time>
      </trkpt>
      <trkpt lat="47.18878" lon="5.53537">
        <ele>347.39999389648</ele>
        <time>2013-12-04T11:18:13Z</time>
      </trkpt>
      <trkpt lat="47.18919" lon="5.53505">
        <ele>345.60000610352</ele>
        <time>2013-12-04T11:18:27Z</time>
      </trkpt>
      <trkpt lat="47.18947" lon="5.53464">
        <ele>344.20001220703</ele>
        <time>2013-12-04T11:18:39Z</time>
      </trkpt>
      <trkpt lat="47.18976" lon="5.53429">
        <ele>342</ele>
        <time>2013-12-04T11:18:51Z</time>
      </trkpt>
      <trkpt lat="47.19001" lon="5.53378">
        <ele>341.39999389648</ele>
        <time>2013-12-04T11:19:23Z</time>
      </trkpt>
      <trkpt lat="47.18989" lon="5.53355">
        <ele>341.39999389648</ele>
        <time>2013-12-04T11:19:33Z</time>
      </trkpt>
      <trkpt lat="47.18989" lon="5.53352">
        <ele>341.39999389648</ele>
        <time>2013-12-04T11:19:34Z</time>
      </trkpt>
      <trkpt lat="47.18983" lon="5.53306">
        <ele>341.39999389648</ele>
        <time>2013-12-04T11:19:47Z</time>
      </trkpt>
      <trkpt lat="47.18958" lon="5.53259">
        <ele>341.39999389648</ele>
        <time>2013-12-04T11:20:02Z</time>
      </trkpt>
      <trkpt lat="47.18939" lon="5.53218">
        <ele>341.39999389648</ele>
        <time>2013-12-04T11:20:15Z</time>
      </trkpt>
      <trkpt lat="47.18932" lon="5.53202">
        <ele>343.39999389648</ele>
        <time>2013-12-04T11:20:20Z</time>
      </trkpt>
      <trkpt lat="47.18941" lon="5.5317">
        <ele>343.60000610352</ele>
        <time>2013-12-04T11:20:31Z</time>
      </trkpt>
      <trkpt lat="47.18953" lon="5.53128">
        <ele>340.79998779297</ele>
        <time>2013-12-04T11:20:43Z</time>
      </trkpt>
      <trkpt lat="47.18953" lon="5.53079">
        <ele>337.39999389648</ele>
        <time>2013-12-04T11:20:54Z</time>
      </trkpt>
      <trkpt lat="47.18962" lon="5.53046">
        <ele>334</ele>
        <time>2013-12-04T11:21:03Z</time>
      </trkpt>
      <trkpt lat="47.18962" lon="5.53014">
        <ele>330.39999389648</ele>
        <time>2013-12-04T11:21:09Z</time>
      </trkpt>
      <trkpt lat="47.18963" lon="5.52985">
        <ele>327.20001220703</ele>
        <time>2013-12-04T11:21:14Z</time>
      </trkpt>
      <trkpt lat="47.1898" lon="5.5295">
        <ele>324</ele>
        <time>2013-12-04T11:21:23Z</time>
      </trkpt>
      <trkpt lat="47.18996" lon="5.52939">
        <ele>320.60000610352</ele>
        <time>2013-12-04T11:21:28Z</time>
      </trkpt>
      <trkpt lat="47.19011" lon="5.52944">
        <ele>317.39999389648</ele>
        <time>2013-12-04T11:21:33Z</time>
      </trkpt>
      <trkpt lat="47.19029" lon="5.52954">
        <ele>314.20001220703</ele>
        <time>2013-12-04T11:21:40Z</time>
      </trkpt>
      <trkpt lat="47.19041" lon="5.5296">
        <ele>310.60000610352</ele>
        <time>2013-12-04T11:21:45Z</time>
      </trkpt>
      <trkpt lat="47.19053" lon="5.52963">
        <ele>307.39999389648</ele>
        <time>2013-12-04T11:21:49Z</time>
      </trkpt>
      <trkpt lat="47.19066" lon="5.52965">
        <ele>304</ele>
        <time>2013-12-04T11:21:54Z</time>
      </trkpt>
      <trkpt lat="47.19088" lon="5.52951">
        <ele>300.79998779297</ele>
        <time>2013-12-04T11:22:00Z</time>
      </trkpt>
      <trkpt lat="47.19105" lon="5.52928">
        <ele>297.60000610352</ele>
        <time>2013-12-04T11:22:08Z</time>
      </trkpt>
      <trkpt lat="47.1911" lon="5.5292">
        <ele>296.79998779297</ele>
        <time>2013-12-04T11:22:11Z</time>
      </trkpt>
      <trkpt lat="47.1913" lon="5.52891">
        <ele>292.79998779297</ele>
        <time>2013-12-04T11:22:22Z</time>
      </trkpt>
      <trkpt lat="47.1914" lon="5.52892">
        <ele>292.60000610352</ele>
        <time>2013-12-04T11:22:28Z</time>
      </trkpt>
      <trkpt lat="47.19166" lon="5.52902">
        <ele>292.60000610352</ele>
        <time>2013-12-04T11:22:42Z</time>
      </trkpt>
      <trkpt lat="47.19174" lon="5.52924">
        <ele>292.60000610352</ele>
        <time>2013-12-04T11:22:52Z</time>
      </trkpt>
      <trkpt lat="47.19182" lon="5.5296">
        <ele>295.60000610352</ele>
        <time>2013-12-04T11:23:05Z</time>
      </trkpt>
      <trkpt lat="47.19195" lon="5.52997">
        <ele>298.79998779297</ele>
        <time>2013-12-04T11:23:18Z</time>
      </trkpt>
      <trkpt lat="47.19209" lon="5.5304">
        <ele>301.20001220703</ele>
        <time>2013-12-04T11:23:34Z</time>
      </trkpt>
      <trkpt lat="47.19221" lon="5.53088">
        <ele>303</ele>
        <time>2013-12-04T11:23:50Z</time>
      </trkpt>
      <trkpt lat="47.19235" lon="5.53127">
        <ele>305</ele>
        <time>2013-12-04T11:24:04Z</time>
      </trkpt>
      <trkpt lat="47.19247" lon="5.53181">
        <ele>306.79998779297</ele>
        <time>2013-12-04T11:24:20Z</time>
      </trkpt>
      <trkpt lat="47.19261" lon="5.53238">
        <ele>308.60000610352</ele>
        <time>2013-12-04T11:24:37Z</time>
      </trkpt>
      <trkpt lat="47.1927" lon="5.53282">
        <ele>310.20001220703</ele>
        <time>2013-12-04T11:24:52Z</time>
      </trkpt>
      <trkpt lat="47.19272" lon="5.53284">
        <ele>310.20001220703</ele>
        <time>2013-12-04T11:24:54Z</time>
      </trkpt>
      <trkpt lat="47.19276" lon="5.53289">
        <ele>310.20001220703</ele>
        <time>2013-12-04T11:24:59Z</time>
      </trkpt>
      <trkpt lat="47.19286" lon="5.53305">
        <ele>310.20001220703</ele>
        <time>2013-12-04T11:25:15Z</time>
      </trkpt>
      <trkpt lat="47.19289" lon="5.5332">
        <ele>310.20001220703</ele>
        <time>2013-12-04T11:25:24Z</time>
      </trkpt>
    </trkseg>
  </trk>
</gpx>